Observation data for Odell on 02/12/2018      Previous  Date  Next       Current Mesonet Observations  Soil Data  Daily Summary Page  Observations in Plain Language
KOD1 120600Z 10006KT M04/M13 A3033 RMK A01 T10441125  RH  053%=      5-min Rain = 0
KOD1 120601Z 10005KT M05/M13 A3033 RMK A01 T10451125  RH  053%=      5-min Rain = 0
KOD1 120602Z 10006KT M05/M13 A3033 RMK A01 T10461125  RH  054%=      5-min Rain = 0
KOD1 120603Z 10006KT M05/M13 A3033 RMK A01 T10461126  RH  054%=      5-min Rain = 0
KOD1 120604Z 10006KT M05/M13 A3033 RMK A01 T10471126  RH  054%=      5-min Rain = 0
KOD1 120605Z 10006KT M05/M13 A3033 RMK A01 T10481126  RH  054%=      5-min Rain = 0
KOD1 120606Z 10006KT M05/M13 A3033 RMK A01 T10481126  RH  055%=      5-min Rain = 0
KOD1 120607Z 10007KT M05/M13 A3033 RMK A01 T10491126  RH  055%=      5-min Rain = 0
KOD1 120608Z 10007KT M05/M13 A3033 RMK A01 T10491125  RH  055%=      5-min Rain = 0
KOD1 120609Z 10007KT M05/M12 A3033 RMK A01 T10491124  RH  056%=      5-min Rain = 0
KOD1 120610Z 10008KT M05/M12 A3033 RMK A01 T10481124  RH  055%=      5-min Rain = 0
KOD1 120611Z 10008KT M05/M12 A3033 RMK A01 T10481124  RH  055%=      5-min Rain = 0
KOD1 120612Z 10008KT M05/M12 A3033 RMK A01 T10471124  RH  055%=      5-min Rain = 0
KOD1 120613Z 10007KT M05/M12 A3033 RMK A01 T10471124  RH  055%=      5-min Rain = 0
KOD1 120614Z 10007KT M05/M12 A3033 RMK A01 T10481124  RH  055%=      5-min Rain = 0
KOD1 120615Z 09007KT M05/M12 A3033 RMK A01 T10481124  RH  055%=      5-min Rain = 0
KOD1 120616Z 09008KT M05/M12 A3033 RMK A01 T10471124  RH  055%=      5-min Rain = 0
KOD1 120617Z 09008KT M05/M12 A3033 RMK A01 T10471124  RH  055%=      5-min Rain = 0
KOD1 120618Z 09008KT M05/M12 A3033 RMK A01 T10471124  RH  055%=      5-min Rain = 0
KOD1 120619Z 09008KT M05/M12 A3033 RMK A01 T10471124  RH  055%=      5-min Rain = 0
KOD1 120620Z 09008KT M05/M12 A3033 RMK A01 T10471124  RH  055%=      5-min Rain = 0
KOD1 120621Z 09008KT M05/M12 A3033 RMK A01 T10471124  RH  055%=      5-min Rain = 0
KOD1 120622Z 09008KT M05/M12 A3033 RMK A01 T10471124  RH  055%=      5-min Rain = 0
KOD1 120623Z 09009KT M05/M12 A3033 RMK A01 T10481124  RH  055%=      5-min Rain = 0
KOD1 120624Z 09008KT M05/M12 A3034 RMK A01 T10481124  RH  055%=      5-min Rain = 0
KOD1 120625Z 09008KT M05/M12 A3034 RMK A01 T10471124  RH  055%=      5-min Rain = 0
KOD1 120626Z 09007KT M05/M12 A3034 RMK A01 T10481124  RH  055%=      5-min Rain = 0
KOD1 120627Z 09007KT M05/M12 A3034 RMK A01 T10481124  RH  055%=      5-min Rain = 0
KOD1 120628Z 09007KT M05/M12 A3034 RMK A01 T10491124  RH  055%=      5-min Rain = 0
KOD1 120629Z 09007KT M05/M13 A3033 RMK A01 T10491125  RH  055%=      5-min Rain = 0
KOD1 120630Z 09006KT M05/M13 A3033 RMK A01 T10501125  RH  055%=      5-min Rain = 0
KOD1 120631Z 09007KT M05/M13 A3033 RMK A01 T10501125  RH  056%=      5-min Rain = 0
KOD1 120632Z 10006KT M05/M13 A3033 RMK A01 T10511125  RH  056%=      5-min Rain = 0
KOD1 120633Z 10007KT M05/M13 A3034 RMK A01 T10511125  RH  056%=      5-min Rain = 0
KOD1 120634Z 10007KT M05/M13 A3034 RMK A01 T10521126  RH  056%=      5-min Rain = 0
KOD1 120635Z 10007KT M05/M13 A3034 RMK A01 T10531125  RH  057%=      5-min Rain = 0
KOD1 120636Z 10007KT M05/M13 A3034 RMK A01 T10531125  RH  057%=      5-min Rain = 0
KOD1 120637Z 10007KT M05/M13 A3034 RMK A01 T10531125  RH  057%=      5-min Rain = 0
KOD1 120638Z 10008KT M05/M13 A3034 RMK A01 T10541126  RH  057%=      5-min Rain = 0
KOD1 120639Z 10008KT M05/M13 A3034 RMK A01 T10541125  RH  058%=      5-min Rain = 0
KOD1 120640Z 11008KT M05/M12 A3034 RMK A01 T10541124  RH  058%=      5-min Rain = 0
KOD1 120641Z 11008KT M05/M12 A3034 RMK A01 T10531123  RH  058%=      5-min Rain = 0
KOD1 120642Z 11008KT M05/M12 A3034 RMK A01 T10531123  RH  058%=      5-min Rain = 0
KOD1 120643Z 11007KT M05/M12 A3034 RMK A01 T10521123  RH  058%=      5-min Rain = 0
KOD1 120644Z 11008KT M05/M12 A3034 RMK A01 T10521123  RH  057%=      5-min Rain = 0
KOD1 120645Z 11007KT M05/M12 A3034 RMK A01 T10521123  RH  057%=      5-min Rain = 0
KOD1 120646Z 11007KT M05/M12 A3034 RMK A01 T10521123  RH  057%=      5-min Rain = 0
KOD1 120647Z 10008KT M05/M12 A3034 RMK A01 T10521123  RH  057%=      5-min Rain = 0
KOD1 120648Z 11008KT M05/M12 A3034 RMK A01 T10521124  RH  057%=      5-min Rain = 0
KOD1 120649Z 11007KT M05/M13 A3034 RMK A01 T10531125  RH  057%=      5-min Rain = 0
KOD1 120650Z 11008KT M05/M13 A3034 RMK A01 T10541125  RH  057%=      5-min Rain = 0
KOD1 120651Z 11008KT M05/M12 A3035 RMK A01 T10541123  RH  058%=      5-min Rain = 0
KOD1 120652Z 11008KT M05/M12 A3035 RMK A01 T10541123  RH  058%=      5-min Rain = 0
KOD1 120653Z 12007KT M05/M12 A3035 RMK A01 T10541123  RH  058%=      5-min Rain = 0
KOD1 120654Z 12007KT M05/M12 A3035 RMK A01 T10531122  RH  058%=      5-min Rain = 0
KOD1 120655Z 12007KT M05/M12 A3035 RMK A01 T10531122  RH  058%=      5-min Rain = 0
KOD1 120656Z 11008KT M05/M12 A3035 RMK A01 T10521121  RH  058%=      5-min Rain = 0
KOD1 120657Z 12007KT M05/M12 A3035 RMK A01 T10511121  RH  058%=      5-min Rain = 0
KOD1 120658Z 11007KT M05/M12 A3035 RMK A01 T10511122  RH  058%=      5-min Rain = 0
KOD1 120659Z 11007KT M05/M12 A3035 RMK A01 T10511122  RH  058%=      5-min Rain = 0
KOD1 120700Z 11007KT M05/M12 A3035 RMK A01 T10521123  RH  057%=      5-min Rain = 0
KOD1 120701Z 12007KT M05/M12 A3035 RMK A01 T10521123  RH  057%=      5-min Rain = 0
KOD1 120702Z 12007KT M05/M12 A3035 RMK A01 T10531122  RH  058%=      5-min Rain = 0
KOD1 120703Z 11007KT M05/M12 A3035 RMK A01 T10531123  RH  058%=      5-min Rain = 0
KOD1 120704Z 11007KT M05/M12 A3035 RMK A01 T10531123  RH  058%=      5-min Rain = 0
KOD1 120705Z 11007KT M05/M12 A3035 RMK A01 T10541123  RH  058%=      5-min Rain = 0
KOD1 120706Z 12007KT M05/M12 A3035 RMK A01 T10541123  RH  058%=      5-min Rain = 0
KOD1 120707Z 12006KT M05/M12 A3035 RMK A01 T10541123  RH  058%=      5-min Rain = 0
KOD1 120708Z 12006KT M06/M12 A3035 RMK A01 T10551124  RH  058%=      5-min Rain = 0
KOD1 120709Z 11006KT M06/M12 A3035 RMK A01 T10561124  RH  059%=      5-min Rain = 0
KOD1 120710Z 11006KT M06/M13 A3035 RMK A01 T10571125  RH  059%=      5-min Rain = 0
KOD1 120711Z 12006KT M06/M13 A3035 RMK A01 T10581125  RH  059%=      5-min Rain = 0
KOD1 120712Z 12006KT M06/M12 A3035 RMK A01 T10581124  RH  060%=      5-min Rain = 0
KOD1 120713Z 12007KT M06/M13 A3035 RMK A01 T10591125  RH  060%=      5-min Rain = 0
KOD1 120714Z 13007KT M06/M13 A3035 RMK A01 T10591125  RH  060%=      5-min Rain = 0
KOD1 120715Z 12007KT M06/M12 A3035 RMK A01 T10591124  RH  060%=      5-min Rain = 0
KOD1 120716Z 13006KT M06/M12 A3035 RMK A01 T10591123  RH  061%=      5-min Rain = 0
KOD1 120717Z 13006KT M06/M12 A3035 RMK A01 T10581123  RH  060%=      5-min Rain = 0
KOD1 120718Z 13007KT M06/M12 A3035 RMK A01 T10581123  RH  060%=      5-min Rain = 0
KOD1 120719Z 12007KT M06/M12 A3035 RMK A01 T10581124  RH  060%=      5-min Rain = 0
KOD1 120720Z 13007KT M06/M12 A3035 RMK A01 T10591124  RH  060%=      5-min Rain = 0
KOD1 120721Z 13008KT M06/M12 A3035 RMK A01 T10591124  RH  060%=      5-min Rain = 0
KOD1 120722Z 13006KT M06/M12 A3035 RMK A01 T10591124  RH  060%=      5-min Rain = 0
KOD1 120723Z 13007KT M06/M12 A3035 RMK A01 T10591124  RH  060%=      5-min Rain = 0
KOD1 120724Z 13007KT M06/M12 A3035 RMK A01 T10591124  RH  060%=      5-min Rain = 0
KOD1 120725Z 13007KT M06/M12 A3035 RMK A01 T10591124  RH  060%=      5-min Rain = 0
KOD1 120726Z 13007KT M06/M12 A3035 RMK A01 T10601124  RH  061%=      5-min Rain = 0
KOD1 120727Z 13007KT M06/M12 A3035 RMK A01 T10601123  RH  061%=      5-min Rain = 0
KOD1 120728Z 13008KT M06/M12 A3035 RMK A01 T10601124  RH  061%=      5-min Rain = 0
KOD1 120729Z 13008KT M06/M12 A3035 RMK A01 T10601123  RH  061%=      5-min Rain = 0
KOD1 120730Z 13008KT M06/M12 A3035 RMK A01 T10591123  RH  061%=      5-min Rain = 0
KOD1 120731Z 13008KT M06/M12 A3035 RMK A01 T10591123  RH  061%=      5-min Rain = 0
KOD1 120732Z 13008KT M06/M12 A3035 RMK A01 T10591123  RH  060%=      5-min Rain = 0
KOD1 120733Z 12008KT M06/M12 A3035 RMK A01 T10591123  RH  060%=      5-min Rain = 0
KOD1 120734Z 12007KT M06/M12 A3035 RMK A01 T10591123  RH  060%=      5-min Rain = 0
KOD1 120735Z 12008KT M06/M12 A3035 RMK A01 T10591123  RH  060%=      5-min Rain = 0
KOD1 120736Z 12007KT M06/M12 A3035 RMK A01 T10581123  RH  060%=      5-min Rain = 0
KOD1 120737Z 12007KT M06/M12 A3035 RMK A01 T10581123  RH  060%=      5-min Rain = 0
KOD1 120738Z 12007KT M06/M12 A3035 RMK A01 T10581123  RH  060%=      5-min Rain = 0
KOD1 120739Z 12007KT M06/M12 A3036 RMK A01 T10581123  RH  060%=      5-min Rain = 0
KOD1 120740Z 13007KT M06/M12 A3036 RMK A01 T10581123  RH  060%=      5-min Rain = 0
KOD1 120741Z 13008KT M06/M12 A3036 RMK A01 T10581123  RH  060%=      5-min Rain = 0
KOD1 120742Z 13008KT M06/M12 A3036 RMK A01 T10581123  RH  060%=      5-min Rain = 0
KOD1 120743Z 13008KT M06/M12 A3036 RMK A01 T10591124  RH  060%=      5-min Rain = 0
KOD1 120744Z 13009KT M06/M12 A3036 RMK A01 T10591123  RH  061%=      5-min Rain = 0
KOD1 120745Z 12008KT M06/M12 A3036 RMK A01 T10591123  RH  060%=      5-min Rain = 0
KOD1 120746Z 13009KT M06/M12 A3036 RMK A01 T10591123  RH  060%=      5-min Rain = 0
KOD1 120747Z 12008KT M06/M12 A3036 RMK A01 T10591123  RH  060%=      5-min Rain = 0
KOD1 120748Z 12008KT M06/M12 A3036 RMK A01 T10581122  RH  061%=      5-min Rain = 0
KOD1 120749Z 12008KT M06/M12 A3036 RMK A01 T10581122  RH  061%=      5-min Rain = 0
KOD1 120750Z 11008KT M06/M12 A3036 RMK A01 T10581122  RH  061%=      5-min Rain = 0
KOD1 120751Z 10008KT M06/M12 A3036 RMK A01 T10571121  RH  061%=      5-min Rain = 0
KOD1 120752Z 11010KT M06/M12 A3036 RMK A01 T10561120  RH  061%=      5-min Rain = 0
KOD1 120753Z 11009KT M06/M12 A3036 RMK A01 T10551120  RH  060%=      5-min Rain = 0
KOD1 120754Z 11008KT M05/M12 A3036 RMK A01 T10541121  RH  060%=      5-min Rain = 0
KOD1 120755Z 12008KT M06/M12 A3036 RMK A01 T10551121  RH  059%=      5-min Rain = 0
KOD1 120756Z 12008KT M06/M12 A3037 RMK A01 T10551122  RH  059%=      5-min Rain = 0
KOD1 120757Z 11007KT M06/M12 A3037 RMK A01 T10561122  RH  059%=      5-min Rain = 0
KOD1 120758Z 11007KT M06/M12 A3037 RMK A01 T10561122  RH  060%=      5-min Rain = 0
KOD1 120759Z 11008KT M06/M12 A3037 RMK A01 T10571122  RH  060%=      5-min Rain = 0
KOD1 120800Z 11008KT M06/M12 A3036 RMK A01 T10571122  RH  060%=      5-min Rain = 0
KOD1 120801Z 11007KT M06/M12 A3036 RMK A01 T10581122  RH  060%=      5-min Rain = 0
KOD1 120802Z 11008KT M06/M12 A3036 RMK A01 T10581122  RH  060%=      5-min Rain = 0
KOD1 120803Z 11008KT M06/M12 A3036 RMK A01 T10581122  RH  061%=      5-min Rain = 0
KOD1 120804Z 11008KT M06/M12 A3036 RMK A01 T10581121  RH  061%=      5-min Rain = 0
KOD1 120805Z 11008KT M06/M12 A3037 RMK A01 T10571121  RH  061%=      5-min Rain = 0
KOD1 120806Z 11008KT M06/M12 A3037 RMK A01 T10571121  RH  061%=      5-min Rain = 0
KOD1 120807Z 11008KT M06/M12 A3037 RMK A01 T10571122  RH  060%=      5-min Rain = 0
KOD1 120808Z 11008KT M06/M12 A3037 RMK A01 T10581121  RH  061%=      5-min Rain = 0
KOD1 120809Z 11008KT M06/M12 A3037 RMK A01 T10581122  RH  061%=      5-min Rain = 0
KOD1 120810Z 11007KT M06/M12 A3037 RMK A01 T10581122  RH  061%=      5-min Rain = 0
KOD1 120811Z 10007KT M06/M12 A3037 RMK A01 T10581123  RH  060%=      5-min Rain = 0
KOD1 120812Z 10007KT M06/M12 A3037 RMK A01 T10601124  RH  060%=      5-min Rain = 0
KOD1 120813Z 10008KT M06/M13 A3037 RMK A01 T10611125  RH  061%=      5-min Rain = 0
KOD1 120814Z 10008KT M06/M13 A3037 RMK A01 T10621125  RH  061%=      5-min Rain = 0
KOD1 120815Z 10008KT M06/M12 A3037 RMK A01 T10631124  RH  062%=      5-min Rain = 0
KOD1 120816Z 10008KT M06/M12 A3036 RMK A01 T10631124  RH  062%=      5-min Rain = 0
KOD1 120817Z 10008KT M06/M12 A3036 RMK A01 T10631123  RH  063%=      5-min Rain = 0
KOD1 120818Z 10008KT M06/M12 A3037 RMK A01 T10621122  RH  062%=      5-min Rain = 0
KOD1 120819Z 10007KT M06/M12 A3037 RMK A01 T10621122  RH  062%=      5-min Rain = 0
KOD1 120820Z 10008KT M06/M12 A3037 RMK A01 T10631123  RH  062%=      5-min Rain = 0
KOD1 120821Z 10007KT M06/M12 A3037 RMK A01 T10631123  RH  063%=      5-min Rain = 0
KOD1 120822Z 10007KT M06/M12 A3037 RMK A01 T10631123  RH  063%=      5-min Rain = 0
KOD1 120823Z 10007KT M06/M12 A3037 RMK A01 T10641123  RH  063%=      5-min Rain = 0
KOD1 120824Z 09007KT M07/M12 A3037 RMK A01 T10651124  RH  063%=      5-min Rain = 0
KOD1 120825Z 09007KT M07/M13 A3037 RMK A01 T10661125  RH  063%=      5-min Rain = 0
KOD1 120826Z 10007KT M07/M12 A3037 RMK A01 T10661124  RH  063%=      5-min Rain = 0
KOD1 120827Z 10007KT M07/M12 A3037 RMK A01 T10661124  RH  063%=      5-min Rain = 0
KOD1 120828Z 10007KT M07/M12 A3037 RMK A01 T10661124  RH  063%=      5-min Rain = 0
KOD1 120829Z 10006KT M07/M13 A3037 RMK A01 T10671125  RH  064%=      5-min Rain = 0
KOD1 120830Z 10006KT M07/M13 A3037 RMK A01 T10671125  RH  064%=      5-min Rain = 0
KOD1 120831Z 09006KT M07/M13 A3037 RMK A01 T10671125  RH  064%=      5-min Rain = 0
KOD1 120832Z 09006KT M07/M13 A3037 RMK A01 T10681125  RH  064%=      5-min Rain = 0
KOD1 120833Z 09006KT M07/M13 A3037 RMK A01 T10681126  RH  064%=      5-min Rain = 0
KOD1 120834Z 08006KT M07/M13 A3037 RMK A01 T10691127  RH  064%=      5-min Rain = 0
KOD1 120835Z 09006KT M07/M13 A3037 RMK A01 T10701127  RH  064%=      5-min Rain = 0
KOD1 120836Z 08006KT M07/M13 A3037 RMK A01 T10711127  RH  064%=      5-min Rain = 0
KOD1 120837Z 08006KT M07/M13 A3037 RMK A01 T10721127  RH  065%=      5-min Rain = 0
KOD1 120838Z 08006KT M07/M13 A3037 RMK A01 T10721127  RH  065%=      5-min Rain = 0
KOD1 120839Z 08007KT M07/M13 A3037 RMK A01 T10731129  RH  065%=      5-min Rain = 0
KOD1 120840Z 08007KT M07/M13 A3037 RMK A01 T10741128  RH  065%=      5-min Rain = 0
KOD1 120841Z 08007KT M07/M13 A3037 RMK A01 T10731127  RH  066%=      5-min Rain = 0
KOD1 120842Z 09007KT M07/M13 A3037 RMK A01 T10731126  RH  066%=      5-min Rain = 0
KOD1 120843Z 09007KT M07/M13 A3037 RMK A01 T10721125  RH  066%=      5-min Rain = 0
KOD1 120844Z 09007KT M07/M13 A3037 RMK A01 T10721125  RH  066%=      5-min Rain = 0
KOD1 120845Z 09007KT M07/M13 A3037 RMK A01 T10721125  RH  066%=      5-min Rain = 0
KOD1 120846Z 09006KT M07/M13 A3037 RMK A01 T10721125  RH  066%=      5-min Rain = 0
KOD1 120847Z 08007KT M07/M13 A3037 RMK A01 T10721126  RH  065%=      5-min Rain = 0
KOD1 120848Z 08007KT M07/M13 A3037 RMK A01 T10721127  RH  065%=      5-min Rain = 0
KOD1 120849Z 08007KT M07/M13 A3038 RMK A01 T10731128  RH  065%=      5-min Rain = 0
KOD1 120850Z 08007KT M07/M13 A3038 RMK A01 T10741128  RH  065%=      5-min Rain = 0
KOD1 120851Z 08007KT M07/M13 A3038 RMK A01 T10741128  RH  065%=      5-min Rain = 0
KOD1 120852Z 09006KT M07/M13 A3038 RMK A01 T10741128  RH  066%=      5-min Rain = 0
KOD1 120853Z 08006KT M07/M13 A3038 RMK A01 T10741127  RH  066%=      5-min Rain = 0
KOD1 120854Z 08006KT M07/M13 A3038 RMK A01 T10741127  RH  066%=      5-min Rain = 0
KOD1 120855Z 08006KT M07/M13 A3038 RMK A01 T10741127  RH  066%=      5-min Rain = 0
KOD1 120856Z 08006KT M07/M13 A3038 RMK A01 T10741126  RH  066%=      5-min Rain = 0
KOD1 120857Z 08006KT M07/M13 A3038 RMK A01 T10741127  RH  066%=      5-min Rain = 0
KOD1 120858Z 08006KT M07/M13 A3038 RMK A01 T10731126  RH  066%=      5-min Rain = 0
KOD1 120859Z 08006KT M07/M13 A3038 RMK A01 T10731125  RH  066%=      5-min Rain = 0
KOD1 120900Z 08006KT M07/M13 A3038 RMK A01 T10731127  RH  065%=      5-min Rain = 0
KOD1 120901Z 08006KT M07/M13 A3038 RMK A01 T10731127  RH  065%=      5-min Rain = 0
KOD1 120902Z 08006KT M07/M13 A3038 RMK A01 T10731127  RH  066%=      5-min Rain = 0
KOD1 120903Z 08006KT M07/M13 A3038 RMK A01 T10731126  RH  066%=      5-min Rain = 0
KOD1 120904Z 07006KT M07/M13 A3038 RMK A01 T10731127  RH  065%=      5-min Rain = 0
KOD1 120905Z 07005KT M07/M13 A3038 RMK A01 T10741127  RH  066%=      5-min Rain = 0
KOD1 120906Z 07006KT M07/M13 A3038 RMK A01 T10741128  RH  066%=      5-min Rain = 0
KOD1 120907Z 07005KT M08/M13 A3038 RMK A01 T10761130  RH  065%=      5-min Rain = 0
KOD1 120908Z 06005KT M08/M13 A3038 RMK A01 T10781134  RH  064%=      5-min Rain = 0
KOD1 120909Z 07006KT M08/M14 A3038 RMK A01 T10811135  RH  065%=      5-min Rain = 0
KOD1 120910Z 06006KT M08/M14 A3038 RMK A01 T10841136  RH  066%=      5-min Rain = 0
KOD1 120911Z 06006KT M09/M14 A3039 RMK A01 T10871138  RH  066%=      5-min Rain = 0
KOD1 120912Z 06006KT M09/M14 A3039 RMK A01 T10901140  RH  067%=      5-min Rain = 0
KOD1 120913Z 06006KT M09/M14 A3039 RMK A01 T10921140  RH  068%=      5-min Rain = 0
KOD1 120914Z 06006KT M09/M14 A3039 RMK A01 T10941142  RH  068%=      5-min Rain = 0
KOD1 120915Z 06006KT M10/M14 A3039 RMK A01 T10971143  RH  069%=      5-min Rain = 0
KOD1 120916Z 06006KT M10/M14 A3039 RMK A01 T10991143  RH  070%=      5-min Rain = 0
KOD1 120917Z 06006KT M10/M15 A3039 RMK A01 T11001145  RH  070%=      5-min Rain = 0
KOD1 120918Z 06006KT M10/M15 A3039 RMK A01 T11021145  RH  071%=      5-min Rain = 0
KOD1 120919Z 06006KT M10/M15 A3039 RMK A01 T11041145  RH  072%=      5-min Rain = 0
KOD1 120920Z 06006KT M10/M14 A3039 RMK A01 T11041144  RH  073%=      5-min Rain = 0
KOD1 120921Z 06006KT M11/M15 A3039 RMK A01 T11051145  RH  073%=      5-min Rain = 0
KOD1 120922Z 05006KT M11/M15 A3039 RMK A01 T11061145  RH  073%=      5-min Rain = 0
KOD1 120923Z 05006KT M11/M15 A3039 RMK A01 T11071145  RH  074%=      5-min Rain = 0
KOD1 120924Z 05006KT M11/M14 A3039 RMK A01 T11081144  RH  075%=      5-min Rain = 0
KOD1 120925Z 05006KT M11/M14 A3039 RMK A01 T11071142  RH  075%=      5-min Rain = 0
KOD1 120926Z 05005KT M11/M14 A3039 RMK A01 T11071142  RH  076%=      5-min Rain = 0
KOD1 120927Z 04005KT M11/M14 A3039 RMK A01 T11071141  RH  076%=      5-min Rain = 0
KOD1 120928Z 04005KT M11/M14 A3039 RMK A01 T11071142  RH  076%=      5-min Rain = 0
KOD1 120929Z 04005KT M11/M14 A3039 RMK A01 T11081142  RH  076%=      5-min Rain = 0
KOD1 120930Z 04005KT M11/M14 A3039 RMK A01 T11081143  RH  076%=      5-min Rain = 0
KOD1 120931Z 04005KT M11/M14 A3039 RMK A01 T11091144  RH  075%=      5-min Rain = 0
KOD1 120932Z 04004KT M11/M15 A3039 RMK A01 T11101145  RH  075%=      5-min Rain = 0
KOD1 120933Z 04004KT M11/M15 A3039 RMK A01 T11101145  RH  076%=      5-min Rain = 0
KOD1 120934Z 04004KT M11/M15 A3039 RMK A01 T11111145  RH  076%=      5-min Rain = 0
KOD1 120935Z 04004KT M11/M14 A3039 RMK A01 T11111144  RH  077%=      5-min Rain = 0
KOD1 120936Z 04004KT M11/M14 A3039 RMK A01 T11111143  RH  077%=      5-min Rain = 0
KOD1 120937Z 04004KT M11/M14 A3039 RMK A01 T11101142  RH  078%=      5-min Rain = 0
KOD1 120938Z 04004KT M11/M14 A3039 RMK A01 T11091140  RH  078%=      5-min Rain = 0
KOD1 120939Z 04004KT M11/M14 A3039 RMK A01 T11081140  RH  077%=      5-min Rain = 0
KOD1 120940Z 04004KT M11/M14 A3039 RMK A01 T11091142  RH  076%=      5-min Rain = 0
KOD1 120941Z 04004KT M11/M14 A3039 RMK A01 T11091142  RH  077%=      5-min Rain = 0
KOD1 120942Z 05004KT M11/M14 A3039 RMK A01 T11081140  RH  077%=      5-min Rain = 0
KOD1 120943Z 05004KT M11/M14 A3039 RMK A01 T11071138  RH  078%=      5-min Rain = 0
KOD1 120944Z 05004KT M11/M14 A3039 RMK A01 T11061138  RH  078%=      5-min Rain = 0
KOD1 120945Z 05004KT M11/M14 A3039 RMK A01 T11051137  RH  077%=      5-min Rain = 0
KOD1 120946Z 06004KT M11/M14 A3039 RMK A01 T11051137  RH  077%=      5-min Rain = 0
KOD1 120947Z 06004KT M10/M13 A3039 RMK A01 T11031134  RH  078%=      5-min Rain = 0
KOD1 120948Z 07004KT M10/M13 A3039 RMK A01 T11011132  RH  079%=      5-min Rain = 0
KOD1 120949Z 07003KT M10/M13 A3039 RMK A01 T11001130  RH  079%=      5-min Rain = 0
KOD1 120950Z 08003KT M10/M13 A3039 RMK A01 T10981130  RH  078%=      5-min Rain = 0
KOD1 120951Z 08003KT M10/M13 A3039 RMK A01 T10981130  RH  077%=      5-min Rain = 0
KOD1 120952Z 09003KT M10/M13 A3039 RMK A01 T10971130  RH  077%=      5-min Rain = 0
KOD1 120953Z 09003KT M10/M13 A3039 RMK A01 T10971131  RH  076%=      5-min Rain = 0
KOD1 120954Z 10003KT M10/M14 A3039 RMK A01 T10991135  RH  075%=      5-min Rain = 0
KOD1 120955Z 09003KT M10/M14 A3039 RMK A01 T11011139  RH  074%=      5-min Rain = 0
KOD1 120956Z 09003KT M10/M14 A3039 RMK A01 T11031142  RH  073%=      5-min Rain = 0
KOD1 120957Z 09003KT M10/M14 A3039 RMK A01 T11041144  RH  073%=      5-min Rain = 0
KOD1 120958Z 09003KT M11/M14 A3039 RMK A01 T11061144  RH  073%=      5-min Rain = 0
KOD1 120959Z 08003KT M11/M14 A3039 RMK A01 T11071144  RH  074%=      5-min Rain = 0
KOD1 121000Z 08003KT M11/M15 A3039 RMK A01 T11071145  RH  074%=      5-min Rain = 0
KOD1 121001Z 08004KT M11/M15 A3039 RMK A01 T11081145  RH  074%=      5-min Rain = 0
KOD1 121002Z 07004KT M11/M14 A3039 RMK A01 T11081144  RH  075%=      5-min Rain = 0
KOD1 121003Z 07003KT M11/M14 A3039 RMK A01 T11091143  RH  076%=      5-min Rain = 0
KOD1 121004Z 08004KT M11/M14 A3039 RMK A01 T11091142  RH  076%=      5-min Rain = 0
KOD1 121005Z 08004KT M11/M14 A3039 RMK A01 T11081141  RH  077%=      5-min Rain = 0
KOD1 121006Z 08004KT M11/M14 A3039 RMK A01 T11061137  RH  078%=      5-min Rain = 0
KOD1 121007Z 08004KT M10/M13 A3038 RMK A01 T11041133  RH  079%=      5-min Rain = 0
KOD1 121008Z 08004KT M10/M13 A3038 RMK A01 T11011131  RH  079%=      5-min Rain = 0
KOD1 121009Z 08004KT M10/M13 A3038 RMK A01 T11001130  RH  079%=      5-min Rain = 0
KOD1 121010Z 08005KT M10/M13 A3038 RMK A01 T10991130  RH  078%=      5-min Rain = 0
KOD1 121011Z 09005KT M10/M13 A3038 RMK A01 T10981129  RH  078%=      5-min Rain = 0
KOD1 121012Z 09005KT M10/M13 A3038 RMK A01 T10961128  RH  078%=      5-min Rain = 0
KOD1 121013Z 09005KT M10/M13 A3038 RMK A01 T10951127  RH  077%=      5-min Rain = 0
KOD1 121014Z 09006KT M09/M13 A3038 RMK A01 T10941126  RH  077%=      5-min Rain = 0
KOD1 121015Z 08006KT M09/M13 A3038 RMK A01 T10921126  RH  077%=      5-min Rain = 0
KOD1 121016Z 08006KT M09/M13 A3038 RMK A01 T10911126  RH  076%=      5-min Rain = 0
KOD1 121017Z 08006KT M09/M13 A3038 RMK A01 T10901125  RH  076%=      5-min Rain = 0
KOD1 121018Z 08005KT M09/M13 A3038 RMK A01 T10891125  RH  075%=      5-min Rain = 0
KOD1 121019Z 09006KT M09/M13 A3038 RMK A01 T10891126  RH  074%=      5-min Rain = 0
KOD1 121020Z 09006KT M09/M13 A3038 RMK A01 T10891127  RH  074%=      5-min Rain = 0
KOD1 121021Z 09006KT M09/M13 A3038 RMK A01 T10891127  RH  074%=      5-min Rain = 0
KOD1 121022Z 09006KT M09/M13 A3038 RMK A01 T10881126  RH  074%=      5-min Rain = 0
KOD1 121023Z 08007KT M09/M13 A3038 RMK A01 T10881127  RH  074%=      5-min Rain = 0
KOD1 121024Z 08007KT M09/M13 A3038 RMK A01 T10881127  RH  074%=      5-min Rain = 0
KOD1 121025Z 09007KT M09/M13 A3038 RMK A01 T10871126  RH  074%=      5-min Rain = 0
KOD1 121026Z 08007KT M09/M13 A3038 RMK A01 T10871125  RH  074%=      5-min Rain = 0
KOD1 121027Z 08007KT M09/M13 A3038 RMK A01 T10861125  RH  074%=      5-min Rain = 0
KOD1 121028Z 08007KT M09/M13 A3038 RMK A01 T10861125  RH  074%=      5-min Rain = 0
KOD1 121029Z 08007KT M09/M12 A3038 RMK A01 T10851124  RH  073%=      5-min Rain = 0
KOD1 121030Z 09006KT M09/M12 A3038 RMK A01 T10851124  RH  073%=      5-min Rain = 0
KOD1 121031Z 09006KT M08/M12 A3038 RMK A01 T10841124  RH  073%=      5-min Rain = 0
KOD1 121032Z 09006KT M08/M12 A3038 RMK A01 T10841124  RH  073%=      5-min Rain = 0
KOD1 121033Z 09006KT M08/M12 A3038 RMK A01 T10841124  RH  073%=      5-min Rain = 0
KOD1 121034Z 09007KT M08/M12 A3038 RMK A01 T10831124  RH  073%=      5-min Rain = 0
KOD1 121035Z 09007KT M08/M12 A3038 RMK A01 T10831124  RH  072%=      5-min Rain = 0
KOD1 121036Z 09007KT M08/M13 A3038 RMK A01 T10831125  RH  072%=      5-min Rain = 0
KOD1 121037Z 09007KT M08/M13 A3038 RMK A01 T10841125  RH  072%=      5-min Rain = 0
KOD1 121038Z 09007KT M08/M13 A3038 RMK A01 T10841125  RH  072%=      5-min Rain = 0
KOD1 121039Z 09007KT M08/M12 A3038 RMK A01 T10841124  RH  073%=      5-min Rain = 0
KOD1 121040Z 09006KT M08/M12 A3038 RMK A01 T10841124  RH  073%=      5-min Rain = 0
KOD1 121041Z 09006KT M08/M12 A3038 RMK A01 T10841124  RH  073%=      5-min Rain = 0
KOD1 121042Z 09006KT M08/M12 A3038 RMK A01 T10841123  RH  073%=      5-min Rain = 0
KOD1 121043Z 09006KT M08/M12 A3038 RMK A01 T10831123  RH  073%=      5-min Rain = 0
KOD1 121044Z 09006KT M08/M12 A3038 RMK A01 T10831123  RH  073%=      5-min Rain = 0
KOD1 121045Z 09006KT M08/M12 A3038 RMK A01 T10841124  RH  073%=      5-min Rain = 0
KOD1 121046Z 09006KT M08/M12 A3039 RMK A01 T10831123  RH  073%=      5-min Rain = 0
KOD1 121047Z 10006KT M08/M12 A3039 RMK A01 T10831122  RH  073%=      5-min Rain = 0
KOD1 121048Z 10006KT M08/M12 A3039 RMK A01 T10821123  RH  073%=      5-min Rain = 0
KOD1 121049Z 10006KT M08/M12 A3039 RMK A01 T10831123  RH  073%=      5-min Rain = 0
KOD1 121050Z 11005KT M08/M12 A3039 RMK A01 T10821123  RH  073%=      5-min Rain = 0
KOD1 121051Z 11005KT M08/M12 A3039 RMK A01 T10831123  RH  072%=      5-min Rain = 0
KOD1 121052Z 11006KT M08/M12 A3039 RMK A01 T10831124  RH  072%=      5-min Rain = 0
KOD1 121053Z 11005KT M08/M12 A3039 RMK A01 T10831124  RH  072%=      5-min Rain = 0
KOD1 121054Z 11006KT M08/M12 A3039 RMK A01 T10831124  RH  072%=      5-min Rain = 0
KOD1 121055Z 11006KT M08/M12 A3039 RMK A01 T10841124  RH  072%=      5-min Rain = 0
KOD1 121056Z 11006KT M08/M12 A3039 RMK A01 T10841124  RH  073%=      5-min Rain = 0
KOD1 121057Z 11006KT M08/M12 A3039 RMK A01 T10841124  RH  073%=      5-min Rain = 0
KOD1 121058Z 11006KT M08/M13 A3039 RMK A01 T10841125  RH  073%=      5-min Rain = 0
KOD1 121059Z 11005KT M08/M13 A304 RMK A01 T10841125  RH  073%=      5-min Rain = 0
KOD1 121100Z 11005KT M08/M13 A304 RMK A01 T10841125  RH  073%=      5-min Rain = 0
KOD1 121101Z 11005KT M08/M13 A304 RMK A01 T10841125  RH  073%=      5-min Rain = 0
KOD1 121102Z 11005KT M09/M13 A304 RMK A01 T10851125  RH  073%=      5-min Rain = 0
KOD1 121103Z 10005KT M09/M13 A304 RMK A01 T10851125  RH  073%=      5-min Rain = 0
KOD1 121104Z 10005KT M09/M13 A304 RMK A01 T10851125  RH  073%=      5-min Rain = 0
KOD1 121105Z 10005KT M08/M12 A304 RMK A01 T10841124  RH  073%=      5-min Rain = 0
KOD1 121106Z 10005KT M08/M13 A304 RMK A01 T10841125  RH  073%=      5-min Rain = 0
KOD1 121107Z 10005KT M09/M13 A304 RMK A01 T10851126  RH  072%=      5-min Rain = 0
KOD1 121108Z 10005KT M09/M13 A304 RMK A01 T10851126  RH  072%=      5-min Rain = 0
KOD1 121109Z 10005KT M09/M13 A304 RMK A01 T10851126  RH  072%=      5-min Rain = 0
KOD1 121110Z 09005KT M09/M13 A304 RMK A01 T10861126  RH  073%=      5-min Rain = 0
KOD1 121111Z 09004KT M09/M13 A304 RMK A01 T10861125  RH  073%=      5-min Rain = 0
KOD1 121112Z 09004KT M09/M13 A304 RMK A01 T10861125  RH  073%=      5-min Rain = 0
KOD1 121113Z 09005KT M09/M13 A304 RMK A01 T10861125  RH  073%=      5-min Rain = 0
KOD1 121114Z 10005KT M09/M13 A3041 RMK A01 T10861126  RH  073%=      5-min Rain = 0
KOD1 121115Z 09005KT M09/M12 A3041 RMK A01 T10851124  RH  073%=      5-min Rain = 0
KOD1 121116Z 09005KT M09/M12 A3041 RMK A01 T10851123  RH  074%=      5-min Rain = 0
KOD1 121117Z 08005KT M08/M12 A3041 RMK A01 T10841123  RH  074%=      5-min Rain = 0
KOD1 121118Z 08004KT M08/M12 A3041 RMK A01 T10831122  RH  073%=      5-min Rain = 0
KOD1 121119Z 08004KT M08/M12 A3041 RMK A01 T10831123  RH  073%=      5-min Rain = 0
KOD1 121120Z 08005KT M08/M13 A3041 RMK A01 T10841125  RH  072%=      5-min Rain = 0
KOD1 121121Z 08006KT M08/M13 A3041 RMK A01 T10841125  RH  072%=      5-min Rain = 0
KOD1 121122Z 08006KT M08/M12 A3041 RMK A01 T10841124  RH  073%=      5-min Rain = 0
KOD1 121123Z 08006KT M08/M12 A3041 RMK A01 T10831122  RH  074%=      5-min Rain = 0
KOD1 121124Z 08006KT M08/M12 A3041 RMK A01 T10811121  RH  073%=      5-min Rain = 0
KOD1 121125Z 08006KT M08/M12 A3041 RMK A01 T10801121  RH  073%=      5-min Rain = 0
KOD1 121126Z 07005KT M08/M12 A3041 RMK A01 T10801123  RH  071%=      5-min Rain = 0
KOD1 121127Z 07005KT M08/M12 A3041 RMK A01 T10811124  RH  071%=      5-min Rain = 0
KOD1 121128Z 07004KT M08/M12 A3041 RMK A01 T10811124  RH  071%=      5-min Rain = 0
KOD1 121129Z 07004KT M08/M13 A3041 RMK A01 T10821126  RH  070%=      5-min Rain = 0
KOD1 121130Z 07004KT M08/M13 A3042 RMK A01 T10841130  RH  070%=      5-min Rain = 0
KOD1 121131Z 06004KT M09/M13 A3042 RMK A01 T10871132  RH  070%=      5-min Rain = 0
KOD1 121132Z 06004KT M09/M13 A3042 RMK A01 T10891133  RH  071%=      5-min Rain = 0
KOD1 121133Z 06004KT M09/M13 A3042 RMK A01 T10921134  RH  072%=      5-min Rain = 0
KOD1 121134Z 06004KT M09/M13 A3042 RMK A01 T10931134  RH  072%=      5-min Rain = 0
KOD1 121135Z 07004KT M10/M14 A3042 RMK A01 T10951136  RH  072%=      5-min Rain = 0
KOD1 121136Z 07004KT M10/M14 A3042 RMK A01 T10971137  RH  073%=      5-min Rain = 0
KOD1 121137Z 07004KT M10/M14 A3042 RMK A01 T10991138  RH  073%=      5-min Rain = 0
KOD1 121138Z 07004KT M10/M14 A3042 RMK A01 T11011139  RH  074%=      5-min Rain = 0
KOD1 121139Z 07004KT M10/M14 A3042 RMK A01 T11021139  RH  074%=      5-min Rain = 0
KOD1 121140Z 07004KT M10/M14 A3042 RMK A01 T11031140  RH  074%=      5-min Rain = 0
KOD1 121141Z 07004KT M11/M14 A3042 RMK A01 T11051142  RH  074%=      5-min Rain = 0
KOD1 121142Z 07004KT M11/M14 A3042 RMK A01 T11071144  RH  074%=      5-min Rain = 0
KOD1 121143Z 07004KT M11/M14 A3042 RMK A01 T11091144  RH  075%=      5-min Rain = 0
KOD1 121144Z 07003KT M11/M15 A3042 RMK A01 T11111146  RH  075%=      5-min Rain = 0
KOD1 121145Z 07003KT M11/M15 A3042 RMK A01 T11131149  RH  075%=      5-min Rain = 0
KOD1 121146Z 07003KT M12/M15 A3042 RMK A01 T11151151  RH  075%=      5-min Rain = 0
KOD1 121147Z 06003KT M12/M15 A3042 RMK A01 T11171151  RH  076%=      5-min Rain = 0
KOD1 121148Z 06003KT M12/M15 A3042 RMK A01 T11171150  RH  077%=      5-min Rain = 0
KOD1 121149Z 06003KT M12/M15 A3042 RMK A01 T11171149  RH  077%=      5-min Rain = 0
KOD1 121150Z 07003KT M12/M15 A3042 RMK A01 T11171148  RH  078%=      5-min Rain = 0
KOD1 121151Z 07003KT M12/M15 A3042 RMK A01 T11171147  RH  078%=      5-min Rain = 0
KOD1 121152Z 06003KT M12/M15 A3042 RMK A01 T11171146  RH  079%=      5-min Rain = 0
KOD1 121153Z 06003KT M12/M15 A3042 RMK A01 T11171146  RH  079%=      5-min Rain = 0
KOD1 121154Z 06004KT M12/M15 A3042 RMK A01 T11171146  RH  079%=      5-min Rain = 0
KOD1 121155Z 05003KT M12/M15 A3042 RMK A01 T11181148  RH  078%=      5-min Rain = 0
KOD1 121156Z 05003KT M12/M15 A3042 RMK A01 T11191149  RH  078%=      5-min Rain = 0
KOD1 121157Z 05004KT M12/M15 A3042 RMK A01 T11201149  RH  079%=      5-min Rain = 0
KOD1 121158Z 05004KT M12/M15 A3042 RMK A01 T11201148  RH  080%=      5-min Rain = 0
KOD1 121159Z 05004KT M12/M15 A3042 RMK A01 T11191145  RH  081%=      5-min Rain = 0
KOD1 121200Z 05004KT M12/M14 A3042 RMK A01 T11171142  RH  082%=      5-min Rain = 0
KOD1 121201Z 05004KT M12/M14 A3042 RMK A01 T11161140  RH  082%=      5-min Rain = 0
KOD1 121202Z 05005KT M12/M14 A3042 RMK A01 T11151138  RH  083%=      5-min Rain = 0
KOD1 121203Z 05005KT M11/M14 A3042 RMK A01 T11131137  RH  083%=      5-min Rain = 0
KOD1 121204Z 05005KT M11/M14 A3042 RMK A01 T11131137  RH  082%=      5-min Rain = 0
KOD1 121205Z 05005KT M11/M14 A3042 RMK A01 T11131139  RH  081%=      5-min Rain = 0
KOD1 121206Z 05005KT M11/M14 A3042 RMK A01 T11141141  RH  080%=      5-min Rain = 0
KOD1 121207Z 05005KT M11/M14 A3042 RMK A01 T11141141  RH  081%=      5-min Rain = 0
KOD1 121208Z 05005KT M12/M14 A3042 RMK A01 T11151143  RH  079%=      5-min Rain = 0
KOD1 121209Z 04004KT M12/M15 A3042 RMK A01 T11161146  RH  079%=      5-min Rain = 0
KOD1 121210Z 04004KT M12/M15 A3042 RMK A01 T11181146  RH  079%=      5-min Rain = 0
KOD1 121211Z 04004KT M12/M15 A3042 RMK A01 T11181146  RH  080%=      5-min Rain = 0
KOD1 121212Z 04004KT M12/M15 A3042 RMK A01 T11191147  RH  080%=      5-min Rain = 0
KOD1 121213Z 04004KT M12/M15 A3042 RMK A01 T11201147  RH  080%=      5-min Rain = 0
KOD1 121214Z 04003KT M12/M15 A3042 RMK A01 T11191145  RH  081%=      5-min Rain = 0
KOD1 121215Z 04003KT M12/M14 A3043 RMK A01 T11191144  RH  081%=      5-min Rain = 0
KOD1 121216Z 04003KT M12/M14 A3043 RMK A01 T11181142  RH  083%=      5-min Rain = 0
KOD1 121217Z 03003KT M12/M14 A3043 RMK A01 T11161139  RH  083%=      5-min Rain = 0
KOD1 121218Z 03003KT M12/M14 A3043 RMK A01 T11151138  RH  083%=      5-min Rain = 0
KOD1 121219Z 02003KT M11/M14 A3043 RMK A01 T11141137  RH  083%=      5-min Rain = 0
KOD1 121220Z 02003KT M11/M14 A3043 RMK A01 T11131138  RH  082%=      5-min Rain = 0
KOD1 121221Z 01003KT M11/M14 A3043 RMK A01 T11131139  RH  081%=      5-min Rain = 0
KOD1 121222Z 01003KT M11/M14 A3043 RMK A01 T11141140  RH  081%=      5-min Rain = 0
KOD1 121223Z 01003KT M12/M14 A3043 RMK A01 T11151141  RH  081%=      5-min Rain = 0
KOD1 121224Z 00003KT M12/M14 A3043 RMK A01 T11151142  RH  080%=      5-min Rain = 0
KOD1 121225Z 36003KT M12/M15 A3043 RMK A01 T11161145  RH  079%=      5-min Rain = 0
KOD1 121226Z 00003KT M12/M15 A3043 RMK A01 T11181147  RH  079%=      5-min Rain = 0
KOD1 121227Z 00002KT M12/M15 A3043 RMK A01 T11191146  RH  080%=      5-min Rain = 0
KOD1 121228Z 00003KT M12/M15 A3043 RMK A01 T11191147  RH  080%=      5-min Rain = 0
KOD1 121229Z 00003KT M12/M15 A3044 RMK A01 T11201147  RH  081%=      5-min Rain = 0
KOD1 121230Z 36003KT M12/M15 A3044 RMK A01 T11201147  RH  080%=      5-min Rain = 0
KOD1 121231Z 35003KT M12/M15 A3044 RMK A01 T11221150  RH  079%=      5-min Rain = 0
KOD1 121232Z 36002KT M12/M15 A3044 RMK A01 T11231151  RH  080%=      5-min Rain = 0
KOD1 121233Z 00002KT M12/M15 A3044 RMK A01 T11231151  RH  080%=      5-min Rain = 0
KOD1 121234Z 00002KT M12/M15 A3044 RMK A01 T11241151  RH  080%=      5-min Rain = 0
KOD1 121235Z 35002KT M12/M15 A3044 RMK A01 T11241150  RH  081%=      5-min Rain = 0
KOD1 121236Z 35003KT M12/M15 A3044 RMK A01 T11241151  RH  081%=      5-min Rain = 0
KOD1 121237Z 00003KT M12/M15 A3043 RMK A01 T11241151  RH  081%=      5-min Rain = 0
KOD1 121238Z 00003KT M13/M15 A3043 RMK A01 T11251150  RH  081%=      5-min Rain = 0
KOD1 121239Z 01003KT M13/M15 A3043 RMK A01 T11251150  RH  081%=      5-min Rain = 0
KOD1 121240Z 01003KT M13/M15 A3043 RMK A01 T11251150  RH  082%=      5-min Rain = 0
KOD1 121241Z 02003KT M13/M15 A3043 RMK A01 T11251149  RH  082%=      5-min Rain = 0
KOD1 121242Z 02004KT M12/M15 A3043 RMK A01 T11241149  RH  082%=      5-min Rain = 0
KOD1 121243Z 02004KT M13/M15 A3043 RMK A01 T11251149  RH  082%=      5-min Rain = 0
KOD1 121244Z 02004KT M13/M15 A3043 RMK A01 T11251150  RH  082%=      5-min Rain = 0
KOD1 121245Z 02004KT M13/M15 A3043 RMK A01 T11251149  RH  082%=      5-min Rain = 0
KOD1 121246Z 02003KT M12/M15 A3043 RMK A01 T11241148  RH  083%=      5-min Rain = 0
KOD1 121247Z 02003KT M12/M15 A3043 RMK A01 T11241148  RH  082%=      5-min Rain = 0
KOD1 121248Z 02003KT M12/M15 A3043 RMK A01 T11241147  RH  083%=      5-min Rain = 0
KOD1 121249Z 01003KT M12/M15 A3044 RMK A01 T11231146  RH  083%=      5-min Rain = 0
KOD1 121250Z 01003KT M12/M15 A3044 RMK A01 T11221145  RH  083%=      5-min Rain = 0
KOD1 121251Z 01002KT M12/M14 A3044 RMK A01 T11211144  RH  083%=      5-min Rain = 0
KOD1 121252Z 00002KT M12/M15 A3044 RMK A01 T11211145  RH  082%=      5-min Rain = 0
KOD1 121253Z 00003KT M12/M15 A3044 RMK A01 T11211145  RH  082%=      5-min Rain = 0
KOD1 121254Z 00002KT M12/M15 A3044 RMK A01 T11211145  RH  082%=      5-min Rain = 0
KOD1 121255Z 00002KT M12/M15 A3044 RMK A01 T11211146  RH  082%=      5-min Rain = 0
KOD1 121256Z 00002KT M12/M15 A3044 RMK A01 T11211146  RH  082%=      5-min Rain = 0
KOD1 121257Z 00002KT M12/M15 A3044 RMK A01 T11211147  RH  081%=      5-min Rain = 0
KOD1 121258Z 00002KT M12/M15 A3044 RMK A01 T11211147  RH  081%=      5-min Rain = 0
KOD1 121259Z 02002KT M12/M15 A3044 RMK A01 T11221147  RH  081%=      5-min Rain = 0
KOD1 121300Z 03002KT M12/M15 A3044 RMK A01 T11221147  RH  081%=      5-min Rain = 0
KOD1 121301Z 03002KT M12/M15 A3044 RMK A01 T11211146  RH  082%=      5-min Rain = 0
KOD1 121302Z 03003KT M12/M15 A3043 RMK A01 T11211146  RH  082%=      5-min Rain = 0
KOD1 121303Z 04003KT M12/M15 A3043 RMK A01 T11211147  RH  082%=      5-min Rain = 0
KOD1 121304Z 04003KT M12/M15 A3043 RMK A01 T11231149  RH  081%=      5-min Rain = 0
KOD1 121305Z 04003KT M12/M15 A3043 RMK A01 T11241150  RH  081%=      5-min Rain = 0
KOD1 121306Z 04004KT M12/M15 A3043 RMK A01 T11241150  RH  081%=      5-min Rain = 0
KOD1 121307Z 04004KT M12/M15 A3043 RMK A01 T11241149  RH  081%=      5-min Rain = 0
KOD1 121308Z 04004KT M12/M15 A3043 RMK A01 T11241148  RH  082%=      5-min Rain = 0
KOD1 121309Z 04004KT M12/M15 A3043 RMK A01 T11231147  RH  083%=      5-min Rain = 0
KOD1 121310Z 04004KT M12/M15 A3043 RMK A01 T11221146  RH  082%=      5-min Rain = 0
KOD1 121311Z 04004KT M12/M15 A3044 RMK A01 T11221147  RH  082%=      5-min Rain = 0
KOD1 121312Z 04004KT M12/M15 A3044 RMK A01 T11221147  RH  082%=      5-min Rain = 0
KOD1 121313Z 05004KT M12/M15 A3044 RMK A01 T11221147  RH  082%=      5-min Rain = 0
KOD1 121314Z 05004KT M12/M15 A3044 RMK A01 T11211146  RH  082%=      5-min Rain = 0
KOD1 121315Z 06004KT M12/M15 A3044 RMK A01 T11211146  RH  082%=      5-min Rain = 0
KOD1 121316Z 06004KT M12/M15 A3044 RMK A01 T11211146  RH  081%=      5-min Rain = 0
KOD1 121317Z 06004KT M12/M15 A3043 RMK A01 T11201146  RH  081%=      5-min Rain = 0
KOD1 121318Z 06005KT M12/M15 A3044 RMK A01 T11201146  RH  081%=      5-min Rain = 0
KOD1 121319Z 06004KT M12/M15 A3044 RMK A01 T11201147  RH  081%=      5-min Rain = 0
KOD1 121320Z 07004KT M12/M15 A3044 RMK A01 T11201147  RH  081%=      5-min Rain = 0
KOD1 121321Z 07005KT M12/M15 A3044 RMK A01 T11201146  RH  081%=      5-min Rain = 0
KOD1 121322Z 07005KT M12/M15 A3043 RMK A01 T11201148  RH  080%=      5-min Rain = 0
KOD1 121323Z 07006KT M12/M15 A3043 RMK A01 T11211150  RH  079%=      5-min Rain = 0
KOD1 121324Z 07006KT M12/M15 A3043 RMK A01 T11231152  RH  079%=      5-min Rain = 0
KOD1 121325Z 06006KT M12/M16 A3043 RMK A01 T11241155  RH  078%=      5-min Rain = 0
KOD1 121326Z 07006KT M13/M16 A3043 RMK A01 T11261156  RH  078%=      5-min Rain = 0
KOD1 121327Z 07006KT M13/M16 A3043 RMK A01 T11281157  RH  079%=      5-min Rain = 0
KOD1 121328Z 07005KT M13/M16 A3043 RMK A01 T11281157  RH  079%=      5-min Rain = 0
KOD1 121329Z 07005KT M13/M16 A3043 RMK A01 T11281155  RH  081%=      5-min Rain = 0
KOD1 121330Z 08005KT M13/M15 A3043 RMK A01 T11261150  RH  082%=      5-min Rain = 0
KOD1 121331Z 07005KT M12/M15 A3043 RMK A01 T11241146  RH  084%=      5-min Rain = 0
KOD1 121332Z 07005KT M12/M14 A3043 RMK A01 T11211142  RH  084%=      5-min Rain = 0
KOD1 121333Z 07005KT M12/M14 A3043 RMK A01 T11161135  RH  086%=      5-min Rain = 0
KOD1 121334Z 07005KT M11/M13 A3044 RMK A01 T11111129  RH  087%=      5-min Rain = 0
KOD1 121335Z 07005KT M11/M12 A3044 RMK A01 T11061123  RH  087%=      5-min Rain = 0
KOD1 121336Z 07004KT M10/M12 A3044 RMK A01 T11011120  RH  087%=      5-min Rain = 0
KOD1 121337Z 07004KT M10/M12 A3044 RMK A01 T10981118  RH  085%=      5-min Rain = 0
KOD1 121338Z 07004KT M10/M12 A3045 RMK A01 T10951118  RH  084%=      5-min Rain = 0
KOD1 121339Z 07004KT M09/M12 A3045 RMK A01 T10941118  RH  082%=      5-min Rain = 0
KOD1 121340Z 07005KT M09/M12 A3045 RMK A01 T10921119  RH  081%=      5-min Rain = 0
KOD1 121341Z 07005KT M09/M12 A3045 RMK A01 T10911119  RH  080%=      5-min Rain = 0
KOD1 121342Z 07005KT M09/M12 A3045 RMK A01 T10911120  RH  079%=      5-min Rain = 0
KOD1 121343Z 06005KT M09/M12 A3045 RMK A01 T10911121  RH  079%=      5-min Rain = 0
KOD1 121344Z 06004KT M09/M12 A3045 RMK A01 T10911122  RH  078%=      5-min Rain = 0
KOD1 121345Z 06005KT M09/M12 A3045 RMK A01 T10911124  RH  077%=      5-min Rain = 0
KOD1 121346Z 06005KT M09/M13 A3045 RMK A01 T10921125  RH  077%=      5-min Rain = 0
KOD1 121347Z 06005KT M09/M13 A3045 RMK A01 T10931127  RH  077%=      5-min Rain = 0
KOD1 121348Z 06005KT M10/M13 A3045 RMK A01 T10951128  RH  077%=      5-min Rain = 0
KOD1 121349Z 06005KT M10/M13 A3045 RMK A01 T10961129  RH  076%=      5-min Rain = 0
KOD1 121350Z 06006KT M10/M13 A3045 RMK A01 T10971131  RH  076%=      5-min Rain = 0
KOD1 121351Z 06006KT M10/M13 A3045 RMK A01 T10981132  RH  076%=      5-min Rain = 0
KOD1 121352Z 06005KT M10/M13 A3045 RMK A01 T10991132  RH  077%=      5-min Rain = 0
KOD1 121353Z 06005KT M10/M13 A3045 RMK A01 T10991131  RH  078%=      5-min Rain = 0
KOD1 121354Z 06005KT M10/M13 A3045 RMK A01 T10981129  RH  079%=      5-min Rain = 0
KOD1 121355Z 06005KT M10/M13 A3045 RMK A01 T10971127  RH  079%=      5-min Rain = 0
KOD1 121356Z 05005KT M10/M13 A3046 RMK A01 T10971126  RH  079%=      5-min Rain = 0
KOD1 121357Z 06004KT M10/M13 A3046 RMK A01 T10961125  RH  079%=      5-min Rain = 0
KOD1 121358Z 06004KT M10/M13 A3046 RMK A01 T10951125  RH  079%=      5-min Rain = 0
KOD1 121359Z 05003KT M09/M12 A3046 RMK A01 T10941124  RH  079%=      5-min Rain = 0
KOD1 121400Z 05002KT M09/M12 A3046 RMK A01 T10931123  RH  079%=      5-min Rain = 0
KOD1 121401Z 02001KT M09/M12 A3046 RMK A01 T10921123  RH  078%=      5-min Rain = 0
KOD1 121402Z 32001KT M09/M13 A3046 RMK A01 T10941131  RH  074%=      5-min Rain = 0
KOD1 121403Z 29001KT M10/M14 A3046 RMK A01 T10961135  RH  074%=      5-min Rain = 0
KOD1 121404Z 27001KT M10/M14 A3046 RMK A01 T10981135  RH  074%=      5-min Rain = 0
KOD1 121405Z 31000KT M10/M13 A3046 RMK A01 T10991133  RH  076%=      5-min Rain = 0
KOD1 121406Z 32000KT M10/M13 A3046 RMK A01 T10981131  RH  077%=      5-min Rain = 0
KOD1 121407Z 31001KT M10/M13 A3046 RMK A01 T10971132  RH  076%=      5-min Rain = 0
KOD1 121408Z 31001KT M10/M13 A3046 RMK A01 T10971132  RH  076%=      5-min Rain = 0
KOD1 121409Z 35000KT M10/M13 A3046 RMK A01 T10961131  RH  076%=      5-min Rain = 0
KOD1 121410Z 02002KT M10/M13 A3046 RMK A01 T10951130  RH  076%=      5-min Rain = 0
KOD1 121411Z 03002KT M09/M13 A3046 RMK A01 T10941128  RH  076%=      5-min Rain = 0
KOD1 121412Z 02002KT M09/M13 A3046 RMK A01 T10921125  RH  077%=      5-min Rain = 0
KOD1 121413Z 00001KT M09/M12 A3046 RMK A01 T10891122  RH  077%=      5-min Rain = 0
KOD1 121414Z 34002KT M09/M12 A3047 RMK A01 T10871123  RH  075%=      5-min Rain = 0
KOD1 121415Z 34002KT M09/M13 A3047 RMK A01 T10861125  RH  074%=      5-min Rain = 0
KOD1 121416Z 33002KT M09/M13 A3047 RMK A01 T10861126  RH  073%=      5-min Rain = 0
KOD1 121417Z 33002KT M09/M13 A3047 RMK A01 T10861127  RH  072%=      5-min Rain = 0
KOD1 121418Z 34002KT M09/M13 A3047 RMK A01 T10851128  RH  071%=      5-min Rain = 0
KOD1 121419Z 35002KT M09/M13 A3046 RMK A01 T10851128  RH  071%=      5-min Rain = 0
KOD1 121420Z 35002KT M09/M13 A3046 RMK A01 T10851128  RH  071%=      5-min Rain = 0
KOD1 121421Z 35002KT M08/M13 A3046 RMK A01 T10841127  RH  071%=      5-min Rain = 0
KOD1 121422Z 35002KT M08/M13 A3046 RMK A01 T10841127  RH  071%=      5-min Rain = 0
KOD1 121423Z 34002KT M08/M13 A3046 RMK A01 T10831128  RH  070%=      5-min Rain = 0
KOD1 121424Z 34002KT M08/M13 A3046 RMK A01 T10831127  RH  071%=      5-min Rain = 0
KOD1 121425Z 34002KT M08/M13 A3046 RMK A01 T10821127  RH  070%=      5-min Rain = 0
KOD1 121426Z 35002KT M08/M13 A3046 RMK A01 T10821127  RH  070%=      5-min Rain = 0
KOD1 121427Z 35003KT M08/M13 A3046 RMK A01 T10821126  RH  071%=      5-min Rain = 0
KOD1 121428Z 01003KT M08/M13 A3046 RMK A01 T10811125  RH  071%=      5-min Rain = 0
KOD1 121429Z 01003KT M08/M12 A3046 RMK A01 T10801123  RH  071%=      5-min Rain = 0
KOD1 121430Z 01004KT M08/M12 A3046 RMK A01 T10791121  RH  071%=      5-min Rain = 0
KOD1 121431Z 01004KT M08/M12 A3046 RMK A01 T10771119  RH  072%=      5-min Rain = 0
KOD1 121432Z 02004KT M08/M12 A3046 RMK A01 T10751120  RH  070%=      5-min Rain = 0
KOD1 121433Z 02004KT M07/M12 A3046 RMK A01 T10741120  RH  070%=      5-min Rain = 0
KOD1 121434Z 02003KT M07/M12 A3046 RMK A01 T10731118  RH  070%=      5-min Rain = 0
KOD1 121435Z 03004KT M07/M12 A3046 RMK A01 T10721117  RH  070%=      5-min Rain = 0
KOD1 121436Z 03003KT M07/M12 A3046 RMK A01 T10701115  RH  070%=      5-min Rain = 0
KOD1 121437Z 04003KT M07/M11 A3046 RMK A01 T10681113  RH  070%=      5-min Rain = 0
KOD1 121438Z 04004KT M07/M11 A3046 RMK A01 T10671113  RH  070%=      5-min Rain = 0
KOD1 121439Z 04004KT M07/M11 A3046 RMK A01 T10661114  RH  069%=      5-min Rain = 0
KOD1 121440Z 03003KT M07/M11 A3046 RMK A01 T10651113  RH  069%=      5-min Rain = 0
KOD1 121441Z 03004KT M06/M11 A3046 RMK A01 T10641112  RH  069%=      5-min Rain = 0
KOD1 121442Z 03004KT M06/M11 A3046 RMK A01 T10631112  RH  069%=      5-min Rain = 0
KOD1 121443Z 02003KT M06/M11 A3046 RMK A01 T10621111  RH  068%=      5-min Rain = 0
KOD1 121444Z 02003KT M06/M11 A3046 RMK A01 T10611110  RH  068%=      5-min Rain = 0
KOD1 121445Z 03003KT M06/M11 A3046 RMK A01 T10611111  RH  068%=      5-min Rain = 0
KOD1 121446Z 03002KT M06/M11 A3047 RMK A01 T10601109  RH  068%=      5-min Rain = 0
KOD1 121447Z 04002KT M06/M11 A3047 RMK A01 T10581107  RH  068%=      5-min Rain = 0
KOD1 121448Z 01002KT M06/M11 A3047 RMK A01 T10571107  RH  068%=      5-min Rain = 0
KOD1 121449Z 35003KT M06/M11 A3047 RMK A01 T10551108  RH  066%=      5-min Rain = 0
KOD1 121450Z 01003KT M06/M11 A3047 RMK A01 T10551111  RH  065%=      5-min Rain = 0
KOD1 121451Z 02003KT M06/M11 A3047 RMK A01 T10551110  RH  065%=      5-min Rain = 0
KOD1 121452Z 03003KT M05/M11 A3047 RMK A01 T10541109  RH  065%=      5-min Rain = 0
KOD1 121453Z 05003KT M05/M11 A3047 RMK A01 T10531108  RH  066%=      5-min Rain = 0
KOD1 121454Z 05004KT M05/M11 A3046 RMK A01 T10511105  RH  066%=      5-min Rain = 0
KOD1 121455Z 05004KT M05/M11 A3046 RMK A01 T10501106  RH  065%=      5-min Rain = 0
KOD1 121456Z 04004KT M05/M11 A3046 RMK A01 T10491106  RH  065%=      5-min Rain = 0
KOD1 121457Z 04004KT M05/M10 A3046 RMK A01 T10481103  RH  065%=      5-min Rain = 0
KOD1 121458Z 04004KT M05/M10 A3046 RMK A01 T10451102  RH  065%=      5-min Rain = 0
KOD1 121459Z 04005KT M04/M10 A3046 RMK A01 T10441103  RH  063%=      5-min Rain = 0
KOD1 121500Z 05004KT M04/M10 A3046 RMK A01 T10421103  RH  063%=      5-min Rain = 0
KOD1 121501Z 04004KT M04/M10 A3046 RMK A01 T10421103  RH  062%=      5-min Rain = 0
KOD1 121502Z 03005KT M04/M11 A3046 RMK A01 T10421105  RH  062%=      5-min Rain = 0
KOD1 121503Z 04005KT M04/M11 A3046 RMK A01 T10431106  RH  062%=      5-min Rain = 0
KOD1 121504Z 05004KT M04/M10 A3046 RMK A01 T10431104  RH  063%=      5-min Rain = 0
KOD1 121505Z 04003KT M04/M10 A3046 RMK A01 T10441103  RH  063%=      5-min Rain = 0
KOD1 121506Z 04004KT M04/M10 A3046 RMK A01 T10441103  RH  063%=      5-min Rain = 0
KOD1 121507Z 04004KT M04/M10 A3046 RMK A01 T10431102  RH  063%=      5-min Rain = 0
KOD1 121508Z 04004KT M04/M10 A3046 RMK A01 T10421101  RH  063%=      5-min Rain = 0
KOD1 121509Z 04003KT M04/M10 A3046 RMK A01 T10401100  RH  063%=      5-min Rain = 0
KOD1 121510Z 04003KT M04/M10 A3046 RMK A01 T10381099  RH  062%=      5-min Rain = 0
KOD1 121511Z 03003KT M04/M10 A3046 RMK A01 T10361099  RH  062%=      5-min Rain = 0
KOD1 121512Z 04005KT M04/M10 A3046 RMK A01 T10351101  RH  060%=      5-min Rain = 0
KOD1 121513Z 04005KT M03/M10 A3046 RMK A01 T10341100  RH  061%=      5-min Rain = 0
KOD1 121514Z 04005KT M03/M10 A3046 RMK A01 T10331099  RH  061%=      5-min Rain = 0
KOD1 121515Z 04006KT M03/M10 A3046 RMK A01 T10321099  RH  060%=      5-min Rain = 0
KOD1 121516Z 06007KT M03/M10 A3046 RMK A01 T10311097  RH  061%=      5-min Rain = 0
KOD1 121517Z 05006KT M03/M10 A3046 RMK A01 T10301096  RH  060%=      5-min Rain = 0
KOD1 121518Z 04006KT M03/M10 A3046 RMK A01 T10291097  RH  059%=      5-min Rain = 0
KOD1 121519Z 04006KT M03/M10 A3046 RMK A01 T10271096  RH  059%=      5-min Rain = 0
KOD1 121520Z 03007KT M03/M10 A3046 RMK A01 T10271098  RH  058%=      5-min Rain = 0
KOD1 121521Z 04007KT M03/M10 A3046 RMK A01 T10281099  RH  058%=      5-min Rain = 0
KOD1 121522Z 05006KT M03/M10 A3046 RMK A01 T10291099  RH  058%=      5-min Rain = 0
KOD1 121523Z 06005KT M03/M10 A3046 RMK A01 T10301099  RH  059%=      5-min Rain = 0
KOD1 121524Z 06006KT M03/M10 A3046 RMK A01 T10281095  RH  060%=      5-min Rain = 0
KOD1 121525Z 07005KT M03/M10 A3046 RMK A01 T10261095  RH  059%=      5-min Rain = 0
KOD1 121526Z 05005KT M02/M10 A3046 RMK A01 T10241095  RH  058%=      5-min Rain = 0
KOD1 121527Z 06006KT M02/M10 A3046 RMK A01 T10231097  RH  057%=      5-min Rain = 0
KOD1 121528Z 06005KT M02/M10 A3046 RMK A01 T10231096  RH  057%=      5-min Rain = 0
KOD1 121529Z 05007KT M02/M10 A3046 RMK A01 T10211095  RH  057%=      5-min Rain = 0
KOD1 121530Z 06008KT M02/M10 A3046 RMK A01 T10201096  RH  056%=      5-min Rain = 0
KOD1 121531Z 08006KT M02/M10 A3046 RMK A01 T10211097  RH  056%=      5-min Rain = 0
KOD1 121532Z 07005KT M02/M10 A3046 RMK A01 T10211097  RH  056%=      5-min Rain = 0
KOD1 121533Z 07005KT M02/M10 A3046 RMK A01 T10201096  RH  056%=      5-min Rain = 0
KOD1 121534Z 06005KT M02/M10 A3046 RMK A01 T10191096  RH  056%=      5-min Rain = 0
KOD1 121535Z 08007KT M02/M10 A3046 RMK A01 T10191097  RH  055%=      5-min Rain = 0
KOD1 121536Z 08005KT M02/M10 A3046 RMK A01 T10191097  RH  055%=      5-min Rain = 0
KOD1 121537Z 08005KT M02/M10 A3046 RMK A01 T10161096  RH  055%=      5-min Rain = 0
KOD1 121538Z 07005KT M02/M10 A3046 RMK A01 T10161097  RH  054%=      5-min Rain = 0
KOD1 121539Z 08008KT M02/M10 A3046 RMK A01 T10161098  RH  054%=      5-min Rain = 0
KOD1 121540Z 07007KT M02/M10 A3046 RMK A01 T10161098  RH  054%=      5-min Rain = 0
KOD1 121541Z 09006KT M02/M10 A3046 RMK A01 T10151097  RH  054%=      5-min Rain = 0
KOD1 121542Z 09006KT M02/M10 A3046 RMK A01 T10161100  RH  052%=      5-min Rain = 0
KOD1 121543Z 07005KT M02/M10 A3046 RMK A01 T10161097  RH  054%=      5-min Rain = 0
KOD1 121544Z 06007KT M02/M10 A3046 RMK A01 T10161100  RH  053%=      5-min Rain = 0
KOD1 121545Z 07006KT M02/M10 A3046 RMK A01 T10171098  RH  054%=      5-min Rain = 0
KOD1 121546Z 07006KT M02/M10 A3046 RMK A01 T10161097  RH  054%=      5-min Rain = 0
KOD1 121547Z 07007KT M02/M10 A3046 RMK A01 T10151097  RH  054%=      5-min Rain = 0
KOD1 121548Z 09007KT M01/M10 A3046 RMK A01 T10141097  RH  053%=      5-min Rain = 0
KOD1 121549Z 07007KT M01/M10 A3046 RMK A01 T10131096  RH  053%=      5-min Rain = 0
KOD1 121550Z 06008KT M01/M10 A3046 RMK A01 T10131097  RH  053%=      5-min Rain = 0
KOD1 121551Z 06007KT M01/M10 A3046 RMK A01 T10141097  RH  053%=      5-min Rain = 0
KOD1 121552Z 09007KT M01/M10 A3046 RMK A01 T10141095  RH  054%=      5-min Rain = 0
KOD1 121553Z 09008KT M01/M10 A3046 RMK A01 T10131097  RH  053%=      5-min Rain = 0
KOD1 121554Z 10008KT M01/M10 A3046 RMK A01 T10131095  RH  054%=      5-min Rain = 0
KOD1 121555Z 10007KT M01/M10 A3046 RMK A01 T10131096  RH  053%=      5-min Rain = 0
KOD1 121556Z 10008KT M01/M10 A3046 RMK A01 T10131096  RH  053%=      5-min Rain = 0
KOD1 121557Z 08008KT M01/M10 A3046 RMK A01 T10131095  RH  053%=      5-min Rain = 0
KOD1 121558Z 09010KT M01/M10 A3046 RMK A01 T10121095  RH  053%=      5-min Rain = 0
KOD1 121559Z 10010KT M01/M10 A3046 RMK A01 T10131096  RH  053%=      5-min Rain = 0
KOD1 121600Z 10010KT M01/M10 A3046 RMK A01 T10131096  RH  053%=      5-min Rain = 0
KOD1 121601Z 10009KT M01/M10 A3046 RMK A01 T10141096  RH  053%=      5-min Rain = 0
KOD1 121602Z 09009KT M01/M10 A3046 RMK A01 T10131095  RH  054%=      5-min Rain = 0
KOD1 121603Z 08007KT M01/M09 A3046 RMK A01 T10121094  RH  054%=      5-min Rain = 0
KOD1 121604Z 08006KT M01/M10 A3046 RMK A01 T10121095  RH  053%=      5-min Rain = 0
KOD1 121605Z 09007KT M01/M09 A3046 RMK A01 T10101092  RH  054%=      5-min Rain = 0
KOD1 121606Z 10008KT M01/M09 A3046 RMK A01 T10081094  RH  052%=      5-min Rain = 0
KOD1 121607Z 09007KT M01/M10 A3046 RMK A01 T10081095  RH  052%=      5-min Rain = 0
KOD1 121608Z 09008KT M01/M10 A3046 RMK A01 T10081095  RH  052%=      5-min Rain = 0
KOD1 121609Z 10009KT M01/M10 A3046 RMK A01 T10091096  RH  052%=      5-min Rain = 0
KOD1 121610Z 10009KT M01/M10 A3046 RMK A01 T10111097  RH  052%=      5-min Rain = 0
KOD1 121611Z 08009KT M01/M10 A3046 RMK A01 T10131097  RH  053%=      5-min Rain = 0
KOD1 121612Z 09006KT M01/M10 A3046 RMK A01 T10131095  RH  054%=      5-min Rain = 0
KOD1 121613Z 10005KT M01/M09 A3046 RMK A01 T10111093  RH  054%=      5-min Rain = 0
KOD1 121614Z 09006KT M01/M09 A3046 RMK A01 T10101093  RH  053%=      5-min Rain = 0
KOD1 121615Z 09007KT M01/M10 A3046 RMK A01 T10091095  RH  052%=      5-min Rain = 0
KOD1 121616Z 09008KT M01/M10 A3046 RMK A01 T10091096  RH  052%=      5-min Rain = 0
KOD1 121617Z 09007KT M01/M10 A3046 RMK A01 T10091095  RH  052%=      5-min Rain = 0
KOD1 121618Z 11005KT M01/M09 A3046 RMK A01 T10081092  RH  053%=      5-min Rain = 0
KOD1 121619Z 08005KT M01/M09 A3046 RMK A01 T10051091  RH  052%=      5-min Rain = 0
KOD1 121620Z 10006KT M00/M09 A3046 RMK A01 T10031094  RH  051%=      5-min Rain = 0
KOD1 121621Z 10008KT M00/M10 A3046 RMK A01 T10031096  RH  050%=      5-min Rain = 0
KOD1 121622Z 08006KT M01/M10 A3046 RMK A01 T10051096  RH  050%=      5-min Rain = 0
KOD1 121623Z 08007KT M01/M10 A3046 RMK A01 T10061096  RH  051%=      5-min Rain = 0
KOD1 121624Z 09009KT M01/M10 A3046 RMK A01 T10061095  RH  051%=      5-min Rain = 0
KOD1 121625Z 07007KT M00/M09 A3046 RMK A01 T10031092  RH  051%=      5-min Rain = 0
KOD1 121626Z 08009KT M00/M09 A3046 RMK A01 T10021094  RH  050%=      5-min Rain = 0
KOD1 121627Z 08008KT M00/M09 A3046 RMK A01 T10021094  RH  050%=      5-min Rain = 0
KOD1 121628Z 08007KT M00/M10 A3046 RMK A01 T10011095  RH  049%=      5-min Rain = 0
KOD1 121629Z 10007KT 00/09 A3046 RMK A01 T00000-93  RH  049%=      5-min Rain = 0
KOD1 121630Z 08007KT 00/M09 A3046 RMK A01 T00021093  RH  049%=      5-min Rain = 0
KOD1 121631Z 09006KT 00/M09 A3046 RMK A01 T00041092  RH  049%=      5-min Rain = 0
KOD1 121632Z 11006KT 01/M09 A3046 RMK A01 T00071094  RH  047%=      5-min Rain = 0
KOD1 121633Z 08008KT 01/M10 A3046 RMK A01 T00071096  RH  046%=      5-min Rain = 0
KOD1 121634Z 07005KT 01/M10 A3046 RMK A01 T00051097  RH  046%=      5-min Rain = 0
KOD1 121635Z 08005KT 01/M10 A3046 RMK A01 T00051096  RH  047%=      5-min Rain = 0
KOD1 121636Z 08007KT 01/M09 A3046 RMK A01 T00071093  RH  047%=      5-min Rain = 0
KOD1 121637Z 08007KT 01/M10 A3046 RMK A01 T00071098  RH  045%=      5-min Rain = 0
KOD1 121638Z 06008KT 01/M10 A3046 RMK A01 T00071098  RH  046%=      5-min Rain = 0
KOD1 121639Z 07007KT 01/M10 A3046 RMK A01 T00061097  RH  046%=      5-min Rain = 0
KOD1 121640Z 07005KT 01/M10 A3046 RMK A01 T00061098  RH  046%=      5-min Rain = 0
KOD1 121641Z 07006KT 01/M10 A3047 RMK A01 T00061097  RH  046%=      5-min Rain = 0
KOD1 121642Z 09007KT 01/M10 A3047 RMK A01 T00081098  RH  045%=      5-min Rain = 0
KOD1 121643Z 11006KT 01/M10 A3047 RMK A01 T00071099  RH  045%=      5-min Rain = 0
KOD1 121644Z 11007KT 01/M10 A3047 RMK A01 T00081099  RH  045%=      5-min Rain = 0
KOD1 121645Z 09007KT 01/M10 A3047 RMK A01 T00081099  RH  044%=      5-min Rain = 0
KOD1 121646Z 12006KT 01/M10 A3047 RMK A01 T00081100  RH  044%=      5-min Rain = 0
KOD1 121647Z 12007KT 01/M10 A3047 RMK A01 T00091100  RH  044%=      5-min Rain = 0
KOD1 121648Z 12006KT 01/M10 A3047 RMK A01 T00091101  RH  043%=      5-min Rain = 0
KOD1 121649Z 10009KT 01/M10 A3047 RMK A01 T00101100  RH  044%=      5-min Rain = 0
KOD1 121650Z 08006KT 01/M10 A3047 RMK A01 T00091101  RH  044%=      5-min Rain = 0
KOD1 121651Z 09007KT 01/M10 A3047 RMK A01 T00101099  RH  044%=      5-min Rain = 0
KOD1 121652Z 09005KT 01/M10 A3047 RMK A01 T00091100  RH  044%=      5-min Rain = 0
KOD1 121653Z 08006KT 01/M10 A3047 RMK A01 T00081100  RH  044%=      5-min Rain = 0
KOD1 121654Z 10005KT 01/M10 A3046 RMK A01 T00091097  RH  045%=      5-min Rain = 0
KOD1 121655Z 10004KT 01/M10 A3046 RMK A01 T00111099  RH  044%=      5-min Rain = 0
KOD1 121656Z 09001KT 01/M10 A3046 RMK A01 T00111099  RH  044%=      5-min Rain = 0
KOD1 121657Z 07006KT 01/M10 A3046 RMK A01 T00121101  RH  043%=      5-min Rain = 0
KOD1 121658Z 07006KT 01/M10 A3046 RMK A01 T00111099  RH  044%=      5-min Rain = 0
KOD1 121659Z 05006KT 01/M10 A3046 RMK A01 T00111101  RH  043%=      5-min Rain = 0
KOD1 121700Z 04006KT 01/M10 A3046 RMK A01 T00101101  RH  043%=      5-min Rain = 0
KOD1 121701Z 10005KT 01/M10 A3046 RMK A01 T00101099  RH  044%=      5-min Rain = 0
KOD1 121702Z 11003KT 01/M10 A3046 RMK A01 T00101098  RH  044%=      5-min Rain = 0
KOD1 121703Z 10005KT 01/M10 A3046 RMK A01 T00121099  RH  043%=      5-min Rain = 0
KOD1 121704Z 05006KT 01/M10 A3046 RMK A01 T00131099  RH  043%=      5-min Rain = 0
KOD1 121705Z 07007KT 02/M10 A3046 RMK A01 T00151102  RH  041%=      5-min Rain = 0
KOD1 121706Z 08005KT 01/M10 A3046 RMK A01 T00141102  RH  042%=      5-min Rain = 0
KOD1 121707Z 08008KT 02/M10 A3045 RMK A01 T00151100  RH  042%=      5-min Rain = 0
KOD1 121708Z 08006KT 02/M10 A3045 RMK A01 T00151100  RH  042%=      5-min Rain = 0
KOD1 121709Z 07003KT 01/M10 A3045 RMK A01 T00141100  RH  042%=      5-min Rain = 0
KOD1 121710Z 08002KT 01/M10 A3045 RMK A01 T00141098  RH  043%=      5-min Rain = 0
KOD1 121711Z 10002KT 02/M10 A3045 RMK A01 T00151100  RH  042%=      5-min Rain = 0
KOD1 121712Z 07003KT 02/M10 A3045 RMK A01 T00151099  RH  042%=      5-min Rain = 0
KOD1 121713Z 06006KT 02/M10 A3045 RMK A01 T00161100  RH  042%=      5-min Rain = 0
KOD1 121714Z 07007KT 02/M10 A3045 RMK A01 T00161103  RH  041%=      5-min Rain = 0
KOD1 121715Z 07007KT 02/M10 A3045 RMK A01 T00161102  RH  041%=      5-min Rain = 0
KOD1 121716Z 08006KT 02/M10 A3045 RMK A01 T00161102  RH  041%=      5-min Rain = 0
KOD1 121717Z 09008KT 02/M10 A3045 RMK A01 T00161102  RH  041%=      5-min Rain = 0
KOD1 121718Z 07006KT 02/M10 A3045 RMK A01 T00161103  RH  041%=      5-min Rain = 0
KOD1 121719Z 08005KT 02/M10 A3045 RMK A01 T00151103  RH  041%=      5-min Rain = 0
KOD1 121720Z 08003KT 01/M10 A3045 RMK A01 T00141103  RH  041%=      5-min Rain = 0
KOD1 121721Z 07005KT 02/M10 A3045 RMK A01 T00151101  RH  042%=      5-min Rain = 0
KOD1 121722Z 08008KT 02/M10 A3045 RMK A01 T00161104  RH  040%=      5-min Rain = 0
KOD1 121723Z 09007KT 02/M10 A3045 RMK A01 T00161104  RH  041%=      5-min Rain = 0
KOD1 121724Z 10007KT 02/M10 A3044 RMK A01 T00191101  RH  041%=      5-min Rain = 0
KOD1 121725Z 10006KT 02/M10 A3044 RMK A01 T00191102  RH  040%=      5-min Rain = 0
KOD1 121726Z 08007KT 02/M10 A3044 RMK A01 T00211100  RH  040%=      5-min Rain = 0
KOD1 121727Z 08005KT 02/M10 A3044 RMK A01 T00201103  RH  040%=      5-min Rain = 0
KOD1 121728Z 08003KT 02/M10 A3044 RMK A01 T00211099  RH  041%=      5-min Rain = 0
KOD1 121729Z 06004KT 02/M10 A3044 RMK A01 T00221100  RH  040%=      5-min Rain = 0
KOD1 121730Z 08004KT 02/M10 A3044 RMK A01 T00231101  RH  039%=      5-min Rain = 0
KOD1 121731Z 08004KT 02/M11 A3044 RMK A01 T00241105  RH  038%=      5-min Rain = 0
KOD1 121732Z 10007KT 03/M10 A3044 RMK A01 T00251100  RH  039%=      5-min Rain = 0
KOD1 121733Z 09005KT 03/M10 A3044 RMK A01 T00261102  RH  038%=      5-min Rain = 0
KOD1 121734Z 06008KT 03/M10 A3044 RMK A01 T00261104  RH  038%=      5-min Rain = 0
KOD1 121735Z 06008KT 03/M11 A3044 RMK A01 T00271106  RH  037%=      5-min Rain = 0
KOD1 121736Z 08009KT 03/M11 A3044 RMK A01 T00281107  RH  036%=      5-min Rain = 0
KOD1 121737Z 06007KT 03/M11 A3044 RMK A01 T00261109  RH  036%=      5-min Rain = 0
KOD1 121738Z 06007KT 03/M11 A3044 RMK A01 T00251110  RH  036%=      5-min Rain = 0
KOD1 121739Z 05007KT 02/M11 A3043 RMK A01 T00241111  RH  036%=      5-min Rain = 0
KOD1 121740Z 05007KT 03/M11 A3043 RMK A01 T00251109  RH  037%=      5-min Rain = 0
KOD1 121741Z 05009KT 03/M11 A3043 RMK A01 T00271107  RH  036%=      5-min Rain = 0
KOD1 121742Z 06009KT 03/M11 A3043 RMK A01 T00291108  RH  036%=      5-min Rain = 0
KOD1 121743Z 05008KT 03/M11 A3043 RMK A01 T00301109  RH  035%=      5-min Rain = 0
KOD1 121744Z 05004KT 03/M11 A3043 RMK A01 T00301109  RH  035%=      5-min Rain = 0
KOD1 121745Z 06006KT 03/M11 A3043 RMK A01 T00301107  RH  036%=      5-min Rain = 0
KOD1 121746Z 08009KT 03/M11 A3043 RMK A01 T00311107  RH  036%=      5-min Rain = 0
KOD1 121747Z 08007KT 03/M11 A3043 RMK A01 T00301108  RH  036%=      5-min Rain = 0
KOD1 121748Z 09005KT 03/M11 A3043 RMK A01 T00291107  RH  036%=      5-min Rain = 0
KOD1 121749Z 06007KT 03/M10 A3043 RMK A01 T00311103  RH  037%=      5-min Rain = 0
KOD1 121750Z 07006KT 03/M11 A3043 RMK A01 T00321107  RH  035%=      5-min Rain = 0
KOD1 121751Z 08003KT 03/M11 A3043 RMK A01 T00291106  RH  036%=      5-min Rain = 0
KOD1 121752Z 08002KT 03/M10 A3042 RMK A01 T00291103  RH  037%=      5-min Rain = 0
KOD1 121753Z 05005KT 03/M10 A3042 RMK A01 T00311103  RH  037%=      5-min Rain = 0
KOD1 121754Z 05006KT 03/M11 A3042 RMK A01 T00341106  RH  035%=      5-min Rain = 0
KOD1 121755Z 04008KT 03/M11 A3042 RMK A01 T00331108  RH  035%=      5-min Rain = 0
KOD1 121756Z 08008KT 04/M11 A3042 RMK A01 T00351105  RH  035%=      5-min Rain = 0
KOD1 121757Z 08008KT 04/M11 A3043 RMK A01 T00351107  RH  035%=      5-min Rain = 0
KOD1 121758Z 08005KT 04/M11 A3042 RMK A01 T00351105  RH  035%=      5-min Rain = 0
KOD1 121759Z 08004KT 03/M11 A3042 RMK A01 T00331108  RH  035%=      5-min Rain = 0
KOD1 121800Z 09003KT 03/M11 A3042 RMK A01 T00321107  RH  035%=      5-min Rain = 0
KOD1 121801Z 08002KT 03/M11 A3042 RMK A01 T00311107  RH  036%=      5-min Rain = 0
KOD1 121802Z 08004KT 03/M10 A3042 RMK A01 T00321104  RH  036%=      5-min Rain = 0
KOD1 121803Z 04004KT 03/M11 A3042 RMK A01 T00341106  RH  035%=      5-min Rain = 0
KOD1 121804Z 05006KT 03/M11 A3042 RMK A01 T00341106  RH  035%=      5-min Rain = 0
KOD1 121805Z 05007KT 04/M11 A3042 RMK A01 T00351105  RH  035%=      5-min Rain = 0
KOD1 121806Z 05006KT 04/M11 A3042 RMK A01 T00371105  RH  035%=      5-min Rain = 0
KOD1 121807Z 04006KT 04/M11 A3042 RMK A01 T00391107  RH  034%=      5-min Rain = 0
KOD1 121808Z 04005KT 04/M11 A3042 RMK A01 T00391105  RH  034%=      5-min Rain = 0
KOD1 121809Z 05006KT 04/M11 A3042 RMK A01 T00401107  RH  033%=      5-min Rain = 0
KOD1 121810Z 04005KT 04/M11 A3042 RMK A01 T00401107  RH  033%=      5-min Rain = 0
KOD1 121811Z 05006KT 04/M11 A3042 RMK A01 T00401106  RH  034%=      5-min Rain = 0
KOD1 121812Z 06008KT 04/M11 A3042 RMK A01 T00421107  RH  033%=      5-min Rain = 0
KOD1 121813Z 09007KT 04/M11 A3042 RMK A01 T00421108  RH  033%=      5-min Rain = 0
KOD1 121814Z 10004KT 04/M11 A3042 RMK A01 T00391108  RH  033%=      5-min Rain = 0
KOD1 121815Z 08003KT 04/M11 A3042 RMK A01 T00401106  RH  034%=      5-min Rain = 0
KOD1 121816Z 04005KT 04/M10 A3042 RMK A01 T00411104  RH  034%=      5-min Rain = 0
KOD1 121817Z 04005KT 04/M11 A3042 RMK A01 T00441107  RH  033%=      5-min Rain = 0
KOD1 121818Z 07007KT 04/M11 A3042 RMK A01 T00441106  RH  033%=      5-min Rain = 0
KOD1 121819Z 10008KT 04/M11 A3042 RMK A01 T00421107  RH  033%=      5-min Rain = 0
KOD1 121820Z 06007KT 04/M11 A3042 RMK A01 T00411106  RH  033%=      5-min Rain = 0
KOD1 121821Z 05006KT 04/M11 A3042 RMK A01 T00401106  RH  034%=      5-min Rain = 0
KOD1 121822Z 06007KT 04/M11 A3042 RMK A01 T00421105  RH  033%=      5-min Rain = 0
KOD1 121823Z 08007KT 04/M11 A3042 RMK A01 T00421106  RH  033%=      5-min Rain = 0
KOD1 121824Z 08007KT 04/M11 A3042 RMK A01 T00421106  RH  033%=      5-min Rain = 0
KOD1 121825Z 08006KT 04/M10 A3042 RMK A01 T00421104  RH  034%=      5-min Rain = 0
KOD1 121826Z 07002KT 04/M11 A3042 RMK A01 T00431105  RH  033%=      5-min Rain = 0
KOD1 121827Z 10004KT 04/M10 A3041 RMK A01 T00441104  RH  033%=      5-min Rain = 0
KOD1 121828Z 08007KT 05/M10 A3041 RMK A01 T00471102  RH  033%=      5-min Rain = 0
KOD1 121829Z 05007KT 05/M10 A3041 RMK A01 T00511103  RH  032%=      5-min Rain = 0
KOD1 121830Z 05005KT 05/M11 A3041 RMK A01 T00501105  RH  032%=      5-min Rain = 0
KOD1 121831Z 06006KT 05/M10 A3041 RMK A01 T00491103  RH  032%=      5-min Rain = 0
KOD1 121832Z 06006KT 05/M11 A3041 RMK A01 T00501105  RH  032%=      5-min Rain = 0
KOD1 121833Z 07007KT 05/M11 A3041 RMK A01 T00481106  RH  032%=      5-min Rain = 0
KOD1 121834Z 07006KT 05/M11 A3041 RMK A01 T00461107  RH  032%=      5-min Rain = 0
KOD1 121835Z 08002KT 04/M11 A3041 RMK A01 T00421108  RH  032%=      5-min Rain = 0
KOD1 121836Z 05003KT 04/M11 A3041 RMK A01 T00421107  RH  033%=      5-min Rain = 0
KOD1 121837Z 06005KT 04/M11 A3041 RMK A01 T00421108  RH  032%=      5-min Rain = 0
KOD1 121838Z 05008KT 04/M11 A3041 RMK A01 T00421108  RH  033%=      5-min Rain = 0
KOD1 121839Z 06007KT 04/M11 A3041 RMK A01 T00421108  RH  033%=      5-min Rain = 0
KOD1 121840Z 05005KT 04/M11 A3041 RMK A01 T00431107  RH  033%=      5-min Rain = 0
KOD1 121841Z 05006KT 04/M11 A304 RMK A01 T00431107  RH  033%=      5-min Rain = 0
KOD1 121842Z 08007KT 04/M11 A304 RMK A01 T00431107  RH  033%=      5-min Rain = 0
KOD1 121843Z 09008KT 04/M11 A304 RMK A01 T00431106  RH  033%=      5-min Rain = 0
KOD1 121844Z 09005KT 04/M11 A304 RMK A01 T00441106  RH  033%=      5-min Rain = 0
KOD1 121845Z 09006KT 05/M11 A304 RMK A01 T00451105  RH  033%=      5-min Rain = 0
KOD1 121846Z 08005KT 05/M11 A304 RMK A01 T00461105  RH  032%=      5-min Rain = 0
KOD1 121847Z 10004KT 05/M11 A304 RMK A01 T00461107  RH  032%=      5-min Rain = 0
KOD1 121848Z 09006G12KT 05/M11 A304 RMK A01 T00461105  RH  032%=      5-min Rain = 0
KOD1 121849Z 08007KT 05/M10 A304 RMK A01 T00501103  RH  032%=      5-min Rain = 0
KOD1 121850Z 07007KT 05/M11 A304 RMK A01 T00541105  RH  031%=      5-min Rain = 0
KOD1 121851Z 09004KT 05/M11 A304 RMK A01 T00531107  RH  030%=      5-min Rain = 0
KOD1 121852Z 07004KT 05/M11 A304 RMK A01 T00511107  RH  031%=      5-min Rain = 0
KOD1 121853Z 12005KT 05/M11 A304 RMK A01 T00501107  RH  031%=      5-min Rain = 0
KOD1 121854Z 10006KT 05/M10 A3039 RMK A01 T00511103  RH  032%=      5-min Rain = 0
KOD1 121855Z 09007KT 06/M10 A3039 RMK A01 T00551103  RH  031%=      5-min Rain = 0
KOD1 121856Z 09005KT 06/M10 A3039 RMK A01 T00561104  RH  031%=      5-min Rain = 0
KOD1 121857Z 09004KT 06/M10 A3039 RMK A01 T00561104  RH  031%=      5-min Rain = 0
KOD1 121858Z 09004KT 06/M11 A3039 RMK A01 T00551105  RH  030%=      5-min Rain = 0
KOD1 121859Z 08006KT 06/M11 A3039 RMK A01 T00551105  RH  030%=      5-min Rain = 0
KOD1 121900Z 08007KT 06/M11 A3039 RMK A01 T00551106  RH  030%=      5-min Rain = 0
KOD1 121901Z 08006KT 06/M11 A3039 RMK A01 T00561107  RH  030%=      5-min Rain = 0
KOD1 121902Z 09005KT 06/M10 A3039 RMK A01 T00581104  RH  030%=      5-min Rain = 0
KOD1 121903Z 09006KT 06/M11 A3039 RMK A01 T00601105  RH  029%=      5-min Rain = 0
KOD1 121904Z 08007KT 06/M11 A3039 RMK A01 T00601107  RH  029%=      5-min Rain = 0
KOD1 121905Z 04004KT 06/M11 A3039 RMK A01 T00571109  RH  029%=      5-min Rain = 0
KOD1 121906Z 03003KT 06/M11 A3038 RMK A01 T00561107  RH  030%=      5-min Rain = 0
KOD1 121907Z 08002KT 06/M11 A3038 RMK A01 T00561107  RH  030%=      5-min Rain = 0
KOD1 121908Z 09006KT 06/M11 A3038 RMK A01 T00551108  RH  030%=      5-min Rain = 0
KOD1 121909Z 09005KT 05/M11 A3038 RMK A01 T00531109  RH  030%=      5-min Rain = 0
KOD1 121910Z 11007KT 05/M11 A3038 RMK A01 T00521108  RH  031%=      5-min Rain = 0
KOD1 121911Z 07008KT 05/M11 A3038 RMK A01 T00521108  RH  030%=      5-min Rain = 0
KOD1 121912Z 08006KT 05/M11 A3038 RMK A01 T00521109  RH  030%=      5-min Rain = 0
KOD1 121913Z 08004KT 05/M11 A3038 RMK A01 T00521108  RH  030%=      5-min Rain = 0
KOD1 121914Z 07006KT 05/M11 A3038 RMK A01 T00531108  RH  030%=      5-min Rain = 0
KOD1 121915Z 10006KT 06/M11 A3038 RMK A01 T00551109  RH  030%=      5-min Rain = 0
KOD1 121916Z 10007KT 06/M11 A3038 RMK A01 T00571107  RH  030%=      5-min Rain = 0
KOD1 121917Z 10009KT 06/M11 A3038 RMK A01 T00581109  RH  029%=      5-min Rain = 0
KOD1 121918Z 13008KT 06/M11 A3038 RMK A01 T00581107  RH  029%=      5-min Rain = 0
KOD1 121919Z 12007KT 06/M11 A3038 RMK A01 T00581107  RH  029%=      5-min Rain = 0
KOD1 121920Z 14005KT 06/M11 A3038 RMK A01 T00581108  RH  029%=      5-min Rain = 0
KOD1 121921Z 14004KT 06/M11 A3038 RMK A01 T00571109  RH  029%=      5-min Rain = 0
KOD1 121922Z 12004KT 06/M11 A3038 RMK A01 T00581107  RH  030%=      5-min Rain = 0
KOD1 121923Z 14005KT 06/M11 A3038 RMK A01 T00581108  RH  029%=      5-min Rain = 0
KOD1 121924Z 14003KT 06/M10 A3038 RMK A01 T00591104  RH  030%=      5-min Rain = 0
KOD1 121925Z 10001KT 06/M11 A3038 RMK A01 T00611105  RH  029%=      5-min Rain = 0
KOD1 121926Z 14003KT 06/M10 A3038 RMK A01 T00641104  RH  029%=      5-min Rain = 0
KOD1 121927Z 14006KT 07/M11 A3038 RMK A01 T00661105  RH  028%=      5-min Rain = 0
KOD1 121928Z 12011KT 07/M11 A3037 RMK A01 T00671105  RH  028%=      5-min Rain = 0
KOD1 121929Z 12007KT 07/M11 A3038 RMK A01 T00651107  RH  028%=      5-min Rain = 0
KOD1 121930Z 12007KT 06/M11 A3037 RMK A01 T00631107  RH  028%=      5-min Rain = 0
KOD1 121931Z 11007KT 06/M11 A3037 RMK A01 T00631107  RH  028%=      5-min Rain = 0
KOD1 121932Z 09007KT 06/M11 A3037 RMK A01 T00641106  RH  028%=      5-min Rain = 0
KOD1 121933Z 10006KT 06/M11 A3037 RMK A01 T00641107  RH  028%=      5-min Rain = 0
KOD1 121934Z 11005KT 06/M11 A3037 RMK A01 T00641107  RH  028%=      5-min Rain = 0
KOD1 121935Z 10006G11KT 06/M11 A3037 RMK A01 T00631108  RH  028%=      5-min Rain = 0
KOD1 121936Z 10010KT 07/M11 A3037 RMK A01 T00651106  RH  028%=      5-min Rain = 0
KOD1 121937Z 08008KT 06/M11 A3037 RMK A01 T00641108  RH  028%=      5-min Rain = 0
KOD1 121938Z 08006KT 06/M11 A3037 RMK A01 T00641107  RH  028%=      5-min Rain = 0
KOD1 121939Z 08005KT 06/M11 A3037 RMK A01 T00621109  RH  028%=      5-min Rain = 0
KOD1 121940Z 08008KT 06/M11 A3037 RMK A01 T00611108  RH  029%=      5-min Rain = 0
KOD1 121941Z 08007KT 06/M11 A3037 RMK A01 T00601109  RH  029%=      5-min Rain = 0
KOD1 121942Z 07007KT 06/M11 A3036 RMK A01 T00591109  RH  029%=      5-min Rain = 0
KOD1 121943Z 08007KT 06/M11 A3036 RMK A01 T00591107  RH  029%=      5-min Rain = 0
KOD1 121944Z 08008KT 06/M11 A3036 RMK A01 T00601107  RH  029%=      5-min Rain = 0
KOD1 121945Z 09007KT 06/M11 A3036 RMK A01 T00611107  RH  029%=      5-min Rain = 0
KOD1 121946Z 08007KT 06/M11 A3036 RMK A01 T00611107  RH  029%=      5-min Rain = 0
KOD1 121947Z 08008KT 06/M11 A3036 RMK A01 T00601108  RH  029%=      5-min Rain = 0
KOD1 121948Z 09007KT 06/M11 A3036 RMK A01 T00591107  RH  029%=      5-min Rain = 0
KOD1 121949Z 09006KT 06/M11 A3036 RMK A01 T00601106  RH  029%=      5-min Rain = 0
KOD1 121950Z 09007KT 06/M11 A3036 RMK A01 T00601106  RH  029%=      5-min Rain = 0
KOD1 121951Z 11007KT 06/M11 A3036 RMK A01 T00611106  RH  029%=      5-min Rain = 0
KOD1 121952Z 11004KT 06/M11 A3036 RMK A01 T00611106  RH  029%=      5-min Rain = 0
KOD1 121953Z 09009KT 06/M10 A3036 RMK A01 T00631104  RH  029%=      5-min Rain = 0
KOD1 121954Z 12009KT 07/M10 A3036 RMK A01 T00651104  RH  029%=      5-min Rain = 0
KOD1 121955Z 11006KT 07/M11 A3035 RMK A01 T00661105  RH  028%=      5-min Rain = 0
KOD1 121956Z 09006KT 07/M10 A3036 RMK A01 T00681102  RH  029%=      5-min Rain = 0
KOD1 121957Z 08005KT 07/M11 A3036 RMK A01 T00701105  RH  028%=      5-min Rain = 0
KOD1 121958Z 06002KT 07/M10 A3035 RMK A01 T00711103  RH  028%=      5-min Rain = 0
KOD1 121959Z 09003KT 07/M10 A3035 RMK A01 T00721104  RH  027%=      5-min Rain = 0
KOD1 122000Z 09008KT 07/M10 A3036 RMK A01 T00721104  RH  027%=      5-min Rain = 0
KOD1 122001Z 08007KT 07/M10 A3036 RMK A01 T00721104  RH  027%=      5-min Rain = 0
KOD1 122002Z 10009KT 07/M10 A3035 RMK A01 T00741101  RH  027%=      5-min Rain = 0
KOD1 122003Z 09006KT 07/M11 A3035 RMK A01 T00741105  RH  027%=      5-min Rain = 0
KOD1 122004Z 08004KT 07/M10 A3035 RMK A01 T00731104  RH  027%=      5-min Rain = 0
KOD1 122005Z 09001KT 07/M10 A3035 RMK A01 T00731104  RH  027%=      5-min Rain = 0
KOD1 122006Z 09004KT 08/M10 A3035 RMK A01 T00751103  RH  027%=      5-min Rain = 0
KOD1 122007Z 10008KT 08/M10 A3035 RMK A01 T00761103  RH  027%=      5-min Rain = 0
KOD1 122008Z 09010KT 08/M10 A3035 RMK A01 T00761103  RH  027%=      5-min Rain = 0
KOD1 122009Z 10008KT 08/M10 A3035 RMK A01 T00751103  RH  027%=      5-min Rain = 0
KOD1 122010Z 10008KT 08/M10 A3035 RMK A01 T00761102  RH  027%=      5-min Rain = 0
KOD1 122011Z 09008KT 08/M10 A3035 RMK A01 T00761102  RH  027%=      5-min Rain = 0
KOD1 122012Z 09010KT 08/M11 A3035 RMK A01 T00761106  RH  026%=      5-min Rain = 0
KOD1 122013Z 09009KT 07/M11 A3035 RMK A01 T00741105  RH  027%=      5-min Rain = 0
KOD1 122014Z 08008KT 07/M11 A3035 RMK A01 T00721105  RH  027%=      5-min Rain = 0
KOD1 122015Z 07006KT 07/M10 A3035 RMK A01 T00721104  RH  027%=      5-min Rain = 0
KOD1 122016Z 08006KT 07/M10 A3034 RMK A01 T00711104  RH  028%=      5-min Rain = 0
KOD1 122017Z 07006KT 07/M10 A3034 RMK A01 T00711104  RH  027%=      5-min Rain = 0
KOD1 122018Z 09007G12KT 07/M10 A3034 RMK A01 T00711103  RH  028%=      5-min Rain = 0
KOD1 122019Z 08009KT 07/M10 A3034 RMK A01 T00731102  RH  028%=      5-min Rain = 0
KOD1 122020Z 07008KT 08/M10 A3034 RMK A01 T00751102  RH  027%=      5-min Rain = 0
KOD1 122021Z 10007KT 08/M10 A3034 RMK A01 T00751104  RH  027%=      5-min Rain = 0
KOD1 122022Z 10010KT 08/M10 A3034 RMK A01 T00751101  RH  027%=      5-min Rain = 0
KOD1 122023Z 09007KT 08/M10 A3034 RMK A01 T00761102  RH  027%=      5-min Rain = 0
KOD1 122024Z 09005KT 07/M10 A3034 RMK A01 T00741103  RH  027%=      5-min Rain = 0
KOD1 122025Z 10004KT 07/M10 A3034 RMK A01 T00721103  RH  028%=      5-min Rain = 0
KOD1 122026Z 13006KT 07/M10 A3034 RMK A01 T00731100  RH  028%=      5-min Rain = 0
KOD1 122027Z 12010KT 08/M10 A3034 RMK A01 T00761100  RH  028%=      5-min Rain = 0
KOD1 122028Z 13009KT 08/M10 A3034 RMK A01 T00751102  RH  027%=      5-min Rain = 0
KOD1 122029Z 14008KT 07/M10 A3034 RMK A01 T00741101  RH  028%=      5-min Rain = 0
KOD1 122030Z 15007KT 07/M10 A3034 RMK A01 T00731102  RH  028%=      5-min Rain = 0
KOD1 122031Z 15009KT 07/M10 A3034 RMK A01 T00711102  RH  028%=      5-min Rain = 0
KOD1 122032Z 12010KT 07/M10 A3034 RMK A01 T00711101  RH  028%=      5-min Rain = 0
KOD1 122033Z 09011KT 07/M10 A3034 RMK A01 T00731102  RH  028%=      5-min Rain = 0
KOD1 122034Z 11012KT 07/M10 A3034 RMK A01 T00731103  RH  027%=      5-min Rain = 0
KOD1 122035Z 11008KT 07/M10 A3034 RMK A01 T00721104  RH  027%=      5-min Rain = 0
KOD1 122036Z 12006KT 07/M10 A3034 RMK A01 T00721101  RH  028%=      5-min Rain = 0
KOD1 122037Z 13009KT 07/M10 A3034 RMK A01 T00741100  RH  028%=      5-min Rain = 0
KOD1 122038Z 13009KT 08/M10 A3033 RMK A01 T00761101  RH  027%=      5-min Rain = 0
KOD1 122039Z 13009KT 08/M10 A3033 RMK A01 T00751102  RH  027%=      5-min Rain = 0
KOD1 122040Z 13010KT 08/M10 A3033 RMK A01 T00751101  RH  027%=      5-min Rain = 0
KOD1 122041Z 12010KT 08/M10 A3033 RMK A01 T00751102  RH  027%=      5-min Rain = 0
KOD1 122042Z 13008KT 08/M10 A3033 RMK A01 T00761101  RH  027%=      5-min Rain = 0
KOD1 122043Z 10009KT 08/M10 A3033 RMK A01 T00761101  RH  027%=      5-min Rain = 0
KOD1 122044Z 09010KT 08/M10 A3034 RMK A01 T00781102  RH  027%=      5-min Rain = 0
KOD1 122045Z 12008KT 08/M10 A3034 RMK A01 T00781102  RH  027%=      5-min Rain = 0
KOD1 122046Z 13006KT 08/M10 A3034 RMK A01 T00771102  RH  027%=      5-min Rain = 0
KOD1 122047Z 14009KT 08/M10 A3033 RMK A01 T00761103  RH  027%=      5-min Rain = 0
KOD1 122048Z 13009KT 08/M10 A3033 RMK A01 T00761102  RH  027%=      5-min Rain = 0
KOD1 122049Z 13008KT 08/M10 A3033 RMK A01 T00771101  RH  027%=      5-min Rain = 0
KOD1 122050Z 13008KT 08/M10 A3033 RMK A01 T00771102  RH  027%=      5-min Rain = 0
KOD1 122051Z 14009KT 08/M10 A3033 RMK A01 T00771102  RH  027%=      5-min Rain = 0
KOD1 122052Z 14008KT 08/M10 A3033 RMK A01 T00751103  RH  027%=      5-min Rain = 0
KOD1 122053Z 10010KT 07/M10 A3033 RMK A01 T00741102  RH  027%=      5-min Rain = 0
KOD1 122054Z 11009KT 07/M10 A3033 RMK A01 T00741102  RH  027%=      5-min Rain = 0
KOD1 122055Z 10009KT 07/M10 A3033 RMK A01 T00741102  RH  027%=      5-min Rain = 0
KOD1 122056Z 09007KT 07/M10 A3033 RMK A01 T00741102  RH  027%=      5-min Rain = 0
KOD1 122057Z 08008KT 07/M10 A3033 RMK A01 T00741101  RH  028%=      5-min Rain = 0
KOD1 122058Z 10005KT 07/M10 A3033 RMK A01 T00741103  RH  027%=      5-min Rain = 0
KOD1 122059Z 14007KT 07/M10 A3033 RMK A01 T00741101  RH  028%=      5-min Rain = 0
KOD1 122100Z 11008KT 08/M10 A3033 RMK A01 T00751100  RH  028%=      5-min Rain = 0
KOD1 122101Z 10012KT 08/M10 A3033 RMK A01 T00771100  RH  027%=      5-min Rain = 0
KOD1 122102Z 10012KT 08/M10 A3033 RMK A01 T00761100  RH  027%=      5-min Rain = 0
KOD1 122103Z 10009KT 08/M10 A3033 RMK A01 T00751100  RH  027%=      5-min Rain = 0
KOD1 122104Z 11007KT 08/M10 A3032 RMK A01 T00751100  RH  028%=      5-min Rain = 0
KOD1 122105Z 09009KT 07/M10 A3032 RMK A01 T00731100  RH  028%=      5-min Rain = 0
KOD1 122106Z 10007KT 07/M10 A3032 RMK A01 T00731100  RH  028%=      5-min Rain = 0
KOD1 122107Z 13008KT 07/M10 A3032 RMK A01 T00741099  RH  028%=      5-min Rain = 0
KOD1 122108Z 12008KT 07/M10 A3032 RMK A01 T00741099  RH  028%=      5-min Rain = 0
KOD1 122109Z 08009KT 08/M10 A3032 RMK A01 T00771098  RH  028%=      5-min Rain = 0
KOD1 122110Z 08009KT 08/M10 A3032 RMK A01 T00781099  RH  027%=      5-min Rain = 0
KOD1 122111Z 09012KT 08/M10 A3032 RMK A01 T00791098  RH  027%=      5-min Rain = 0
KOD1 122112Z 12012KT 08/M10 A3032 RMK A01 T00811098  RH  027%=      5-min Rain = 0
KOD1 122113Z 11011KT 08/M10 A3032 RMK A01 T00811099  RH  027%=      5-min Rain = 0
KOD1 122114Z 11009KT 08/M10 A3032 RMK A01 T00801099  RH  027%=      5-min Rain = 0
KOD1 122115Z 12010KT 08/M10 A3032 RMK A01 T00801099  RH  027%=      5-min Rain = 0
KOD1 122116Z 11008KT 08/M10 A3032 RMK A01 T00801098  RH  027%=      5-min Rain = 0
KOD1 122117Z 10008KT 08/M10 A3032 RMK A01 T00791099  RH  027%=      5-min Rain = 0
KOD1 122118Z 10009KT 08/M10 A3032 RMK A01 T00771099  RH  027%=      5-min Rain = 0
KOD1 122119Z 10009KT 08/M10 A3032 RMK A01 T00781098  RH  028%=      5-min Rain = 0
KOD1 122120Z 10010KT 08/M10 A3032 RMK A01 T00791097  RH  028%=      5-min Rain = 0
KOD1 122121Z 11010KT 08/M10 A3032 RMK A01 T00801098  RH  027%=      5-min Rain = 0
KOD1 122122Z 12010KT 08/M10 A3032 RMK A01 T00791097  RH  027%=      5-min Rain = 0
KOD1 122123Z 11009KT 08/M10 A3032 RMK A01 T00801098  RH  027%=      5-min Rain = 0
KOD1 122124Z 09008KT 08/M10 A3032 RMK A01 T00781098  RH  028%=      5-min Rain = 0
KOD1 122125Z 10008KT 08/M10 A3032 RMK A01 T00791097  RH  028%=      5-min Rain = 0
KOD1 122126Z 10007KT 08/M10 A3032 RMK A01 T00781098  RH  028%=      5-min Rain = 0
KOD1 122127Z 10006KT 08/M10 A3031 RMK A01 T00771098  RH  028%=      5-min Rain = 0
KOD1 122128Z 11008KT 08/M10 A3031 RMK A01 T00771097  RH  028%=      5-min Rain = 0
KOD1 122129Z 11008KT 08/M10 A3032 RMK A01 T00771098  RH  028%=      5-min Rain = 0
KOD1 122130Z 11007KT 08/M10 A3031 RMK A01 T00761098  RH  028%=      5-min Rain = 0
KOD1 122131Z 11007KT 07/M10 A3031 RMK A01 T00741098  RH  028%=      5-min Rain = 0
KOD1 122132Z 10009KT 07/M10 A3031 RMK A01 T00731097  RH  029%=      5-min Rain = 0
KOD1 122133Z 08007KT 07/M10 A3031 RMK A01 T00731097  RH  029%=      5-min Rain = 0
KOD1 122134Z 07007KT 07/M10 A3031 RMK A01 T00731097  RH  029%=      5-min Rain = 0
KOD1 122135Z 10008KT 08/M10 A3031 RMK A01 T00751095  RH  029%=      5-min Rain = 0
KOD1 122136Z 10008KT 08/M10 A3031 RMK A01 T00771096  RH  028%=      5-min Rain = 0
KOD1 122137Z 10011KT 08/M10 A3031 RMK A01 T00781096  RH  028%=      5-min Rain = 0
KOD1 122138Z 10011KT 08/M10 A3031 RMK A01 T00791096  RH  028%=      5-min Rain = 0
KOD1 122139Z 11010KT 08/M10 A3031 RMK A01 T00791096  RH  028%=      5-min Rain = 0
KOD1 122140Z 11008KT 08/M10 A3031 RMK A01 T00781096  RH  028%=      5-min Rain = 0
KOD1 122141Z 10008KT 08/M10 A3031 RMK A01 T00791095  RH  028%=      5-min Rain = 0
KOD1 122142Z 11008KT 08/M10 A3031 RMK A01 T00801096  RH  028%=      5-min Rain = 0
KOD1 122143Z 10008KT 08/M09 A3031 RMK A01 T00791094  RH  028%=      5-min Rain = 0
KOD1 122144Z 10009KT 08/M09 A3031 RMK A01 T00801094  RH  028%=      5-min Rain = 0
KOD1 122145Z 09008KT 08/M09 A3031 RMK A01 T00801094  RH  028%=      5-min Rain = 0
KOD1 122146Z 08009KT 08/M09 A3031 RMK A01 T00801094  RH  028%=      5-min Rain = 0
KOD1 122147Z 08011KT 08/M09 A3031 RMK A01 T00801094  RH  028%=      5-min Rain = 0
KOD1 122148Z 08009KT 08/M09 A3031 RMK A01 T00791094  RH  028%=      5-min Rain = 0
KOD1 122149Z 10007KT 08/M09 A3031 RMK A01 T00791093  RH  028%=      5-min Rain = 0
KOD1 122150Z 10009KT 08/M09 A3031 RMK A01 T00811093  RH  028%=      5-min Rain = 0
KOD1 122151Z 12011KT 08/M09 A3031 RMK A01 T00831094  RH  027%=      5-min Rain = 0
KOD1 122152Z 11009KT 09/M09 A3031 RMK A01 T00851094  RH  027%=      5-min Rain = 0
KOD1 122153Z 11008KT 09/M09 A3031 RMK A01 T00851094  RH  027%=      5-min Rain = 0
KOD1 122154Z 12010KT 09/M09 A3031 RMK A01 T00851093  RH  027%=      5-min Rain = 0
KOD1 122155Z 13007KT 09/M09 A3031 RMK A01 T00861093  RH  027%=      5-min Rain = 0
KOD1 122156Z 13008KT 09/M09 A3031 RMK A01 T00861094  RH  027%=      5-min Rain = 0
KOD1 122157Z 10009KT 08/M10 A3031 RMK A01 T00841095  RH  027%=      5-min Rain = 0
KOD1 122158Z 10010KT 08/M09 A3031 RMK A01 T00831093  RH  028%=      5-min Rain = 0
KOD1 122159Z 09009KT 08/M09 A3031 RMK A01 T00841093  RH  028%=      5-min Rain = 0
KOD1 122200Z 09008KT 09/M09 A3031 RMK A01 T00851092  RH  028%=      5-min Rain = 0
KOD1 122201Z 10011KT 09/M09 A3031 RMK A01 T00861094  RH  027%=      5-min Rain = 0
KOD1 122202Z 09010KT 09/M09 A3031 RMK A01 T00861094  RH  027%=      5-min Rain = 0
KOD1 122203Z 10009KT 08/M09 A3031 RMK A01 T00831094  RH  027%=      5-min Rain = 0
KOD1 122204Z 11008KT 08/M09 A3031 RMK A01 T00821094  RH  028%=      5-min Rain = 0
KOD1 122205Z 09008KT 08/M09 A3031 RMK A01 T00801093  RH  028%=      5-min Rain = 0
KOD1 122206Z 09008KT 08/M09 A3031 RMK A01 T00791093  RH  028%=      5-min Rain = 0
KOD1 122207Z 09006KT 08/M09 A3031 RMK A01 T00791092  RH  029%=      5-min Rain = 0
KOD1 122208Z 08007KT 08/M09 A3031 RMK A01 T00791092  RH  029%=      5-min Rain = 0
KOD1 122209Z 09008KT 08/M09 A3031 RMK A01 T00821091  RH  028%=      5-min Rain = 0
KOD1 122210Z 10010KT 08/M09 A3031 RMK A01 T00821092  RH  028%=      5-min Rain = 0
KOD1 122211Z 09007KT 08/M09 A3031 RMK A01 T00811092  RH  028%=      5-min Rain = 0
KOD1 122212Z 10008KT 08/M09 A3031 RMK A01 T00821091  RH  028%=      5-min Rain = 0
KOD1 122213Z 10011KT 08/M09 A3031 RMK A01 T00831092  RH  028%=      5-min Rain = 0
KOD1 122214Z 11008KT 08/M09 A3031 RMK A01 T00811092  RH  028%=      5-min Rain = 0
KOD1 122215Z 11006KT 08/M09 A303 RMK A01 T00811091  RH  028%=      5-min Rain = 0
KOD1 122216Z 09009KT 08/M09 A303 RMK A01 T00811091  RH  029%=      5-min Rain = 0
KOD1 122217Z 08009KT 08/M09 A303 RMK A01 T00811090  RH  029%=      5-min Rain = 0
KOD1 122218Z 07008KT 08/M09 A303 RMK A01 T00801091  RH  029%=      5-min Rain = 0
KOD1 122219Z 08007KT 08/M09 A303 RMK A01 T00811089  RH  029%=      5-min Rain = 0
KOD1 122220Z 09007KT 08/M09 A303 RMK A01 T00821089  RH  029%=      5-min Rain = 0
KOD1 122221Z 09009KT 08/M09 A303 RMK A01 T00821089  RH  029%=      5-min Rain = 0
KOD1 122222Z 10007KT 08/M09 A303 RMK A01 T00831088  RH  029%=      5-min Rain = 0
KOD1 122223Z 11009KT 08/M09 A303 RMK A01 T00841089  RH  028%=      5-min Rain = 0
KOD1 122224Z 09010KT 08/M09 A303 RMK A01 T00841089  RH  028%=      5-min Rain = 0
KOD1 122225Z 10010KT 08/M09 A303 RMK A01 T00841088  RH  029%=      5-min Rain = 0
KOD1 122226Z 09009KT 09/M09 A303 RMK A01 T00851088  RH  028%=      5-min Rain = 0
KOD1 122227Z 09009KT 08/M09 A303 RMK A01 T00841088  RH  029%=      5-min Rain = 0
KOD1 122228Z 11010KT 08/M09 A303 RMK A01 T00841087  RH  029%=      5-min Rain = 0
KOD1 122229Z 10009KT 09/M09 A303 RMK A01 T00851086  RH  029%=      5-min Rain = 0
KOD1 122230Z 11008KT 09/M09 A303 RMK A01 T00861086  RH  029%=      5-min Rain = 0
KOD1 122231Z 11011KT 09/M09 A303 RMK A01 T00871086  RH  028%=      5-min Rain = 0
KOD1 122232Z 11011KT 09/M09 A303 RMK A01 T00871086  RH  028%=      5-min Rain = 0
KOD1 122233Z 11009KT 09/M09 A303 RMK A01 T00881086  RH  028%=      5-min Rain = 0
KOD1 122234Z 11009KT 09/M09 A303 RMK A01 T00871088  RH  028%=      5-min Rain = 0
KOD1 122235Z 12010KT 08/M09 A303 RMK A01 T00841088  RH  029%=      5-min Rain = 0
KOD1 122236Z 11011KT 08/M09 A303 RMK A01 T00821087  RH  029%=      5-min Rain = 0
KOD1 122237Z 10012KT 08/M09 A303 RMK A01 T00821087  RH  029%=      5-min Rain = 0
KOD1 122238Z 11010KT 08/M09 A303 RMK A01 T00821086  RH  029%=      5-min Rain = 0
KOD1 122239Z 11011KT 08/M09 A303 RMK A01 T00831086  RH  029%=      5-min Rain = 0
KOD1 122240Z 12009KT 09/M09 A303 RMK A01 T00851086  RH  029%=      5-min Rain = 0
KOD1 122241Z 12008KT 09/M09 A303 RMK A01 T00861085  RH  029%=      5-min Rain = 0
KOD1 122242Z 11010KT 09/M09 A303 RMK A01 T00881085  RH  029%=      5-min Rain = 0
KOD1 122243Z 10009KT 09/M09 A303 RMK A01 T00871086  RH  028%=      5-min Rain = 0
KOD1 122244Z 09008KT 09/M09 A303 RMK A01 T00861085  RH  029%=      5-min Rain = 0
KOD1 122245Z 10009KT 09/M09 A303 RMK A01 T00851086  RH  029%=      5-min Rain = 0
KOD1 122246Z 09008KT 08/M09 A303 RMK A01 T00831086  RH  029%=      5-min Rain = 0
KOD1 122247Z 09010KT 08/M09 A303 RMK A01 T00831085  RH  029%=      5-min Rain = 0
KOD1 122248Z 09009KT 08/M08 A303 RMK A01 T00831084  RH  030%=      5-min Rain = 0
KOD1 122249Z 10012KT 08/M08 A303 RMK A01 T00831084  RH  030%=      5-min Rain = 0
KOD1 122250Z 09009KT 08/M08 A303 RMK A01 T00831083  RH  030%=      5-min Rain = 0
KOD1 122251Z 09010KT 08/M08 A303 RMK A01 T00831083  RH  030%=      5-min Rain = 0
KOD1 122252Z 08008KT 08/M08 A303 RMK A01 T00821083  RH  030%=      5-min Rain = 0
KOD1 122253Z 09008KT 08/M08 A303 RMK A01 T00831082  RH  030%=      5-min Rain = 0
KOD1 122254Z 11008G13KT 08/M08 A303 RMK A01 T00841082  RH  030%=      5-min Rain = 0
KOD1 122255Z 11011KT 08/M08 A303 RMK A01 T00841082  RH  030%=      5-min Rain = 0
KOD1 122256Z 11010KT 08/M08 A303 RMK A01 T00831082  RH  030%=      5-min Rain = 0
KOD1 122257Z 10010KT 08/M08 A303 RMK A01 T00831081  RH  030%=      5-min Rain = 0
KOD1 122258Z 10011KT 08/M08 A303 RMK A01 T00831081  RH  030%=      5-min Rain = 0
KOD1 122259Z 11008KT 08/M08 A303 RMK A01 T00831081  RH  031%=      5-min Rain = 0
KOD1 122300Z 12011KT 08/M08 A303 RMK A01 T00821081  RH  031%=      5-min Rain = 0
KOD1 122301Z 12010KT 08/M08 A303 RMK A01 T00821081  RH  031%=      5-min Rain = 0
KOD1 122302Z 10009KT 08/M08 A303 RMK A01 T00831080  RH  031%=      5-min Rain = 0
KOD1 122303Z 10010KT 08/M08 A303 RMK A01 T00831080  RH  031%=      5-min Rain = 0
KOD1 122304Z 10008KT 08/M08 A303 RMK A01 T00821079  RH  031%=      5-min Rain = 0
KOD1 122305Z 11007KT 08/M08 A303 RMK A01 T00821079  RH  031%=      5-min Rain = 0
KOD1 122306Z 10008KT 08/M08 A303 RMK A01 T00831078  RH  031%=      5-min Rain = 0
KOD1 122307Z 10011KT 08/M08 A303 RMK A01 T00821079  RH  031%=      5-min Rain = 0
KOD1 122308Z 10010KT 08/M08 A303 RMK A01 T00811079  RH  031%=      5-min Rain = 0
KOD1 122309Z 09011KT 08/M08 A303 RMK A01 T00811078  RH  032%=      5-min Rain = 0
KOD1 122310Z 08012KT 08/M08 A303 RMK A01 T00801078  RH  032%=      5-min Rain = 0
KOD1 122311Z 09012KT 08/M08 A3029 RMK A01 T00801077  RH  032%=      5-min Rain = 0
KOD1 122312Z 10011KT 08/M08 A3029 RMK A01 T00791077  RH  032%=      5-min Rain = 0
KOD1 122313Z 10011KT 08/M08 A3029 RMK A01 T00791077  RH  032%=      5-min Rain = 0
KOD1 122314Z 10009KT 08/M08 A3029 RMK A01 T00791077  RH  032%=      5-min Rain = 0
KOD1 122315Z 10009KT 08/M08 A3029 RMK A01 T00801077  RH  032%=      5-min Rain = 0
KOD1 122316Z 10008KT 08/M08 A3029 RMK A01 T00801077  RH  032%=      5-min Rain = 0
KOD1 122317Z 10010KT 08/M08 A303 RMK A01 T00801077  RH  032%=      5-min Rain = 0
KOD1 122318Z 10011KT 08/M08 A303 RMK A01 T00791078  RH  032%=      5-min Rain = 0
KOD1 122319Z 10009KT 08/M08 A3029 RMK A01 T00781078  RH  032%=      5-min Rain = 0
KOD1 122320Z 10011KT 08/M08 A303 RMK A01 T00771079  RH  032%=      5-min Rain = 0
KOD1 122321Z 10009KT 08/M08 A3029 RMK A01 T00751079  RH  032%=      5-min Rain = 0
KOD1 122322Z 09012KT 08/M08 A3029 RMK A01 T00751079  RH  033%=      5-min Rain = 0
KOD1 122323Z 10011KT 07/M08 A3029 RMK A01 T00741079  RH  033%=      5-min Rain = 0
KOD1 122324Z 10008KT 07/M08 A3029 RMK A01 T00731080  RH  033%=      5-min Rain = 0
KOD1 122325Z 11013KT 07/M08 A3029 RMK A01 T00731079  RH  033%=      5-min Rain = 0
KOD1 122326Z 10013KT 07/M08 A3029 RMK A01 T00721079  RH  033%=      5-min Rain = 0
KOD1 122327Z 10011KT 07/M08 A3029 RMK A01 T00711079  RH  034%=      5-min Rain = 0
KOD1 122328Z 10011KT 07/M08 A303 RMK A01 T00701078  RH  034%=      5-min Rain = 0
KOD1 122329Z 10011KT 07/M08 A303 RMK A01 T00701078  RH  034%=      5-min Rain = 0
KOD1 122330Z 10008KT 07/M08 A303 RMK A01 T00701078  RH  034%=      5-min Rain = 0
KOD1 122331Z 10007KT 07/M08 A303 RMK A01 T00701078  RH  034%=      5-min Rain = 0
KOD1 122332Z 10009KT 07/M08 A303 RMK A01 T00691078  RH  034%=      5-min Rain = 0
KOD1 122333Z 09009KT 07/M08 A303 RMK A01 T00691077  RH  034%=      5-min Rain = 0
KOD1 122334Z 09008KT 07/M08 A303 RMK A01 T00691076  RH  035%=      5-min Rain = 0
KOD1 122335Z 10008KT 07/M08 A303 RMK A01 T00691076  RH  035%=      5-min Rain = 0
KOD1 122336Z 09010KT 07/M08 A303 RMK A01 T00691076  RH  035%=      5-min Rain = 0
KOD1 122337Z 11007KT 07/M08 A303 RMK A01 T00701076  RH  035%=      5-min Rain = 0
KOD1 122338Z 11007KT 07/M08 A303 RMK A01 T00701076  RH  034%=      5-min Rain = 0
KOD1 122339Z 11008KT 07/M08 A303 RMK A01 T00701076  RH  034%=      5-min Rain = 0
KOD1 122340Z 11010KT 07/M08 A303 RMK A01 T00701077  RH  034%=      5-min Rain = 0
KOD1 122341Z 11009KT 07/M08 A303 RMK A01 T00701077  RH  034%=      5-min Rain = 0
KOD1 122342Z 11009KT 07/M08 A303 RMK A01 T00691076  RH  035%=      5-min Rain = 0
KOD1 122343Z 10010KT 07/M08 A303 RMK A01 T00681076  RH  035%=      5-min Rain = 0
KOD1 122344Z 10010KT 07/M08 A303 RMK A01 T00681076  RH  035%=      5-min Rain = 0
KOD1 122345Z 10009KT 07/M08 A303 RMK A01 T00671076  RH  035%=      5-min Rain = 0
KOD1 122346Z 11010KT 07/M08 A303 RMK A01 T00671076  RH  035%=      5-min Rain = 0
KOD1 122347Z 10012KT 07/M08 A303 RMK A01 T00661075  RH  036%=      5-min Rain = 0
KOD1 122348Z 11010KT 07/M08 A303 RMK A01 T00661075  RH  036%=      5-min Rain = 0
KOD1 122349Z 11009KT 07/M08 A303 RMK A01 T00651075  RH  036%=      5-min Rain = 0
KOD1 122350Z 11010KT 07/M08 A303 RMK A01 T00651075  RH  036%=      5-min Rain = 0
KOD1 122351Z 10011KT 06/M07 A303 RMK A01 T00641074  RH  036%=      5-min Rain = 0
KOD1 122352Z 11009KT 06/M07 A303 RMK A01 T00641074  RH  036%=      5-min Rain = 0
KOD1 122353Z 11009KT 06/M07 A303 RMK A01 T00641074  RH  037%=      5-min Rain = 0
KOD1 122354Z 11009KT 06/M07 A303 RMK A01 T00631074  RH  037%=      5-min Rain = 0
KOD1 122355Z 10009KT 06/M07 A303 RMK A01 T00631074  RH  037%=      5-min Rain = 0
KOD1 122356Z 10009KT 06/M07 A303 RMK A01 T00631074  RH  037%=      5-min Rain = 0
KOD1 122357Z 10009KT 06/M07 A303 RMK A01 T00621073  RH  037%=      5-min Rain = 0
KOD1 122358Z 10010KT 06/M07 A303 RMK A01 T00621073  RH  037%=      5-min Rain = 0
KOD1 122359Z 10011KT 06/M07 A303 RMK A01 T00621073  RH  037%=      5-min Rain = 0
KOD1 130000Z 10010KT 06/M07 A303 RMK A01 T00621073  RH  037%=      5-min Rain = 0
KOD1 130001Z 10009KT 06/M07 A303 RMK A01 T00621073  RH  037%=      5-min Rain = 0
KOD1 130002Z 10009KT 06/M07 A303 RMK A01 T00611073  RH  038%=      5-min Rain = 0
KOD1 130003Z 10009KT 06/M07 A303 RMK A01 T00611073  RH  038%=      5-min Rain = 0
KOD1 130004Z 10009KT 06/M07 A303 RMK A01 T00601073  RH  038%=      5-min Rain = 0
KOD1 130005Z 10008KT 06/M07 A303 RMK A01 T00601073  RH  038%=      5-min Rain = 0
KOD1 130006Z 11009KT 06/M07 A303 RMK A01 T00591073  RH  038%=      5-min Rain = 0
KOD1 130007Z 10009KT 06/M07 A303 RMK A01 T00591072  RH  038%=      5-min Rain = 0
KOD1 130008Z 10009KT 06/M07 A303 RMK A01 T00591072  RH  038%=      5-min Rain = 0
KOD1 130009Z 10008KT 06/M07 A303 RMK A01 T00581072  RH  039%=      5-min Rain = 0
KOD1 130010Z 10008KT 06/M07 A303 RMK A01 T00581072  RH  039%=      5-min Rain = 0
KOD1 130011Z 10008KT 06/M07 A303 RMK A01 T00571072  RH  039%=      5-min Rain = 0
KOD1 130012Z 11008KT 06/M07 A303 RMK A01 T00571072  RH  039%=      5-min Rain = 0
KOD1 130013Z 10008KT 06/M07 A303 RMK A01 T00561072  RH  039%=      5-min Rain = 0
KOD1 130014Z 10008KT 06/M07 A303 RMK A01 T00561071  RH  039%=      5-min Rain = 0
KOD1 130015Z 10009KT 06/M07 A303 RMK A01 T00561071  RH  040%=      5-min Rain = 0
KOD1 130016Z 10007KT 06/M07 A303 RMK A01 T00551071  RH  040%=      5-min Rain = 0
KOD1 130017Z 10008KT 06/M07 A303 RMK A01 T00551071  RH  040%=      5-min Rain = 0
KOD1 130018Z 10009KT 05/M07 A303 RMK A01 T00541070  RH  040%=      5-min Rain = 0
KOD1 130019Z 10008KT 05/M07 A303 RMK A01 T00541070  RH  040%=      5-min Rain = 0
KOD1 130020Z 10008KT 05/M07 A303 RMK A01 T00541070  RH  040%=      5-min Rain = 0
KOD1 130021Z 10007KT 05/M07 A303 RMK A01 T00531071  RH  040%=      5-min Rain = 0
KOD1 130022Z 09007KT 05/M07 A303 RMK A01 T00531070  RH  041%=      5-min Rain = 0
KOD1 130023Z 09008KT 05/M07 A303 RMK A01 T00531070  RH  041%=      5-min Rain = 0
KOD1 130024Z 09009KT 05/M07 A303 RMK A01 T00531069  RH  041%=      5-min Rain = 0
KOD1 130025Z 10008KT 05/M07 A303 RMK A01 T00531069  RH  041%=      5-min Rain = 0
KOD1 130026Z 10008KT 05/M07 A303 RMK A01 T00521070  RH  041%=      5-min Rain = 0
KOD1 130027Z 10008KT 05/M07 A303 RMK A01 T00521069  RH  041%=      5-min Rain = 0
KOD1 130028Z 10009KT 05/M07 A303 RMK A01 T00511069  RH  042%=      5-min Rain = 0
KOD1 130029Z 10008KT 05/M07 A3031 RMK A01 T00511068  RH  042%=      5-min Rain = 0
KOD1 130030Z 10009KT 05/M07 A3031 RMK A01 T00511068  RH  042%=      5-min Rain = 0
KOD1 130031Z 10009KT 05/M07 A3031 RMK A01 T00521068  RH  042%=      5-min Rain = 0
KOD1 130032Z 10008KT 05/M07 A3031 RMK A01 T00511069  RH  042%=      5-min Rain = 0
KOD1 130033Z 11009KT 05/M07 A3031 RMK A01 T00511068  RH  042%=      5-min Rain = 0
KOD1 130034Z 11008KT 05/M07 A3031 RMK A01 T00501068  RH  042%=      5-min Rain = 0
KOD1 130035Z 11009KT 05/M07 A3031 RMK A01 T00501068  RH  042%=      5-min Rain = 0
KOD1 130036Z 11008KT 05/M07 A3031 RMK A01 T00491068  RH  042%=      5-min Rain = 0
KOD1 130037Z 11009KT 05/M07 A3031 RMK A01 T00491068  RH  043%=      5-min Rain = 0
KOD1 130038Z 11009KT 05/M07 A3031 RMK A01 T00481068  RH  043%=      5-min Rain = 0
KOD1 130039Z 11008KT 05/M07 A3031 RMK A01 T00481068  RH  043%=      5-min Rain = 0
KOD1 130040Z 10010KT 05/M07 A3031 RMK A01 T00471067  RH  043%=      5-min Rain = 0
KOD1 130041Z 11009KT 05/M07 A3031 RMK A01 T00471068  RH  043%=      5-min Rain = 0
KOD1 130042Z 11009KT 05/M07 A3031 RMK A01 T00471067  RH  043%=      5-min Rain = 0
KOD1 130043Z 11010KT 05/M07 A3031 RMK A01 T00461067  RH  043%=      5-min Rain = 0
KOD1 130044Z 11009KT 05/M07 A3031 RMK A01 T00461067  RH  044%=      5-min Rain = 0
KOD1 130045Z 11008KT 05/M07 A3031 RMK A01 T00451067  RH  044%=      5-min Rain = 0
KOD1 130046Z 11009KT 05/M07 A3031 RMK A01 T00451067  RH  044%=      5-min Rain = 0
KOD1 130047Z 11009KT 05/M07 A3031 RMK A01 T00451067  RH  044%=      5-min Rain = 0
KOD1 130048Z 11009KT 04/M07 A3031 RMK A01 T00441067  RH  044%=      5-min Rain = 0
KOD1 130049Z 11010KT 04/M07 A3031 RMK A01 T00441067  RH  044%=      5-min Rain = 0
KOD1 130050Z 11009KT 04/M07 A3031 RMK A01 T00441067  RH  044%=      5-min Rain = 0
KOD1 130051Z 11009KT 04/M07 A3031 RMK A01 T00441067  RH  044%=      5-min Rain = 0
KOD1 130052Z 11009KT 04/M07 A3031 RMK A01 T00431067  RH  045%=      5-min Rain = 0
KOD1 130053Z 11010KT 04/M07 A3031 RMK A01 T00431066  RH  045%=      5-min Rain = 0
KOD1 130054Z 11010KT 04/M07 A3031 RMK A01 T00431067  RH  045%=      5-min Rain = 0
KOD1 130055Z 11010KT 04/M07 A3031 RMK A01 T00431067  RH  045%=      5-min Rain = 0
KOD1 130056Z 11009KT 04/M07 A3031 RMK A01 T00421067  RH  045%=      5-min Rain = 0
KOD1 130057Z 11009KT 04/M07 A3031 RMK A01 T00421067  RH  045%=      5-min Rain = 0
KOD1 130058Z 11010KT 04/M07 A3031 RMK A01 T00411067  RH  045%=      5-min Rain = 0
KOD1 130059Z 11011KT 04/M07 A3031 RMK A01 T00421066  RH  045%=      5-min Rain = 0
KOD1 130100Z 12009KT 04/M07 A3031 RMK A01 T00421067  RH  045%=      5-min Rain = 0
KOD1 130101Z 11010KT 04/M07 A3031 RMK A01 T00411066  RH  045%=      5-min Rain = 0
KOD1 130102Z 11010KT 04/M07 A3031 RMK A01 T00411067  RH  045%=      5-min Rain = 0
KOD1 130103Z 11010KT 04/M07 A3031 RMK A01 T00411067  RH  045%=      5-min Rain = 0
KOD1 130104Z 11010KT 04/M07 A3031 RMK A01 T00401067  RH  046%=      5-min Rain = 0
KOD1 130105Z 11011KT 04/M07 A3031 RMK A01 T00401066  RH  046%=      5-min Rain = 0
KOD1 130106Z 11010KT 04/M07 A3031 RMK A01 T00401067  RH  046%=      5-min Rain = 0
KOD1 130107Z 11011KT 04/M07 A3031 RMK A01 T00401067  RH  046%=      5-min Rain = 0
KOD1 130108Z 11009KT 04/M07 A3031 RMK A01 T00391067  RH  046%=      5-min Rain = 0
KOD1 130109Z 11009KT 04/M07 A3031 RMK A01 T00391067  RH  046%=      5-min Rain = 0
KOD1 130110Z 11010KT 04/M07 A3031 RMK A01 T00391067  RH  046%=      5-min Rain = 0
KOD1 130111Z 11010KT 04/M07 A3032 RMK A01 T00381067  RH  046%=      5-min Rain = 0
KOD1 130112Z 11010KT 04/M07 A3032 RMK A01 T00381067  RH  046%=      5-min Rain = 0
KOD1 130113Z 11009KT 04/M07 A3032 RMK A01 T00381067  RH  046%=      5-min Rain = 0
KOD1 130114Z 11010KT 04/M07 A3032 RMK A01 T00371066  RH  047%=      5-min Rain = 0
KOD1 130115Z 11010KT 04/M07 A3032 RMK A01 T00371067  RH  047%=      5-min Rain = 0
KOD1 130116Z 11010KT 04/M07 A3032 RMK A01 T00371066  RH  047%=      5-min Rain = 0
KOD1 130117Z 11009KT 04/M07 A3032 RMK A01 T00371067  RH  047%=      5-min Rain = 0
KOD1 130118Z 11009KT 04/M07 A3032 RMK A01 T00361066  RH  047%=      5-min Rain = 0
KOD1 130119Z 11009KT 04/M07 A3032 RMK A01 T00361067  RH  047%=      5-min Rain = 0
KOD1 130120Z 11010KT 04/M07 A3032 RMK A01 T00361066  RH  047%=      5-min Rain = 0
KOD1 130121Z 11009KT 04/M07 A3032 RMK A01 T00361066  RH  047%=      5-min Rain = 0
KOD1 130122Z 11011KT 04/M07 A3032 RMK A01 T00351066  RH  047%=      5-min Rain = 0
KOD1 130123Z 10010KT 04/M07 A3032 RMK A01 T00351066  RH  047%=      5-min Rain = 0
KOD1 130124Z 10010KT 04/M07 A3032 RMK A01 T00351066  RH  048%=      5-min Rain = 0
KOD1 130125Z 10009KT 03/M07 A3032 RMK A01 T00341067  RH  048%=      5-min Rain = 0
KOD1 130126Z 10009KT 03/M07 A3032 RMK A01 T00341066  RH  048%=      5-min Rain = 0
KOD1 130127Z 11010KT 03/M07 A3032 RMK A01 T00341066  RH  048%=      5-min Rain = 0
KOD1 130128Z 11010KT 03/M07 A3032 RMK A01 T00341066  RH  048%=      5-min Rain = 0
KOD1 130129Z 11011KT 03/M07 A3032 RMK A01 T00331066  RH  048%=      5-min Rain = 0
KOD1 130130Z 11009KT 03/M07 A3032 RMK A01 T00331066  RH  048%=      5-min Rain = 0
KOD1 130131Z 11009KT 03/M07 A3032 RMK A01 T00331066  RH  048%=      5-min Rain = 0
KOD1 130132Z 11011KT 03/M07 A3032 RMK A01 T00331066  RH  048%=      5-min Rain = 0
KOD1 130133Z 11009KT 03/M07 A3032 RMK A01 T00331066  RH  048%=      5-min Rain = 0
KOD1 130134Z 10010KT 03/M07 A3032 RMK A01 T00331066  RH  048%=      5-min Rain = 0
KOD1 130135Z 11010KT 03/M07 A3032 RMK A01 T00331066  RH  048%=      5-min Rain = 0
KOD1 130136Z 10010KT 03/M07 A3032 RMK A01 T00331066  RH  048%=      5-min Rain = 0
KOD1 130137Z 10009KT 03/M07 A3032 RMK A01 T00331066  RH  048%=      5-min Rain = 0
KOD1 130138Z 10010KT 03/M07 A3032 RMK A01 T00331066  RH  048%=      5-min Rain = 0
KOD1 130139Z 10009KT 03/M07 A3032 RMK A01 T00321066  RH  049%=      5-min Rain = 0
KOD1 130140Z 11010KT 03/M07 A3032 RMK A01 T00321066  RH  049%=      5-min Rain = 0
KOD1 130141Z 11009KT 03/M07 A3032 RMK A01 T00321065  RH  049%=      5-min Rain = 0
KOD1 130142Z 10010KT 03/M07 A3032 RMK A01 T00321065  RH  049%=      5-min Rain = 0
KOD1 130143Z 11010KT 03/M07 A3032 RMK A01 T00321065  RH  049%=      5-min Rain = 0
KOD1 130144Z 11010KT 03/M07 A3032 RMK A01 T00321065  RH  049%=      5-min Rain = 0
KOD1 130145Z 11008KT 03/M07 A3032 RMK A01 T00321065  RH  049%=      5-min Rain = 0
KOD1 130146Z 11010KT 03/M07 A3032 RMK A01 T00311065  RH  049%=      5-min Rain = 0
KOD1 130147Z 11010KT 03/M07 A3032 RMK A01 T00311065  RH  049%=      5-min Rain = 0
KOD1 130148Z 11009KT 03/M07 A3032 RMK A01 T00311065  RH  049%=      5-min Rain = 0
KOD1 130149Z 11009KT 03/M07 A3032 RMK A01 T00311065  RH  049%=      5-min Rain = 0
KOD1 130150Z 11009KT 03/M07 A3032 RMK A01 T00301065  RH  049%=      5-min Rain = 0
KOD1 130151Z 11010KT 03/M07 A3032 RMK A01 T00301065  RH  050%=      5-min Rain = 0
KOD1 130152Z 11009KT 03/M07 A3032 RMK A01 T00301065  RH  050%=      5-min Rain = 0
KOD1 130153Z 11008KT 03/M07 A3032 RMK A01 T00301065  RH  050%=      5-min Rain = 0
KOD1 130154Z 11010KT 03/M07 A3032 RMK A01 T00291065  RH  050%=      5-min Rain = 0
KOD1 130155Z 11009KT 03/M07 A3032 RMK A01 T00291065  RH  050%=      5-min Rain = 0
KOD1 130156Z 11009KT 03/M07 A3032 RMK A01 T00291065  RH  050%=      5-min Rain = 0
KOD1 130157Z 11008KT 03/M07 A3033 RMK A01 T00291065  RH  050%=      5-min Rain = 0
KOD1 130158Z 11009KT 03/M06 A3033 RMK A01 T00291064  RH  050%=      5-min Rain = 0
KOD1 130159Z 11010KT 03/M06 A3033 RMK A01 T00291064  RH  050%=      5-min Rain = 0
KOD1 130200Z 11009KT 03/M06 A3033 RMK A01 T00291064  RH  050%=      5-min Rain = 0
KOD1 130201Z 11008KT 03/M07 A3033 RMK A01 T00281065  RH  050%=      5-min Rain = 0
KOD1 130202Z 11010KT 03/M06 A3033 RMK A01 T00281064  RH  051%=      5-min Rain = 0
KOD1 130203Z 11010KT 03/M06 A3033 RMK A01 T00281064  RH  051%=      5-min Rain = 0
KOD1 130204Z 11009KT 03/M06 A3033 RMK A01 T00281064  RH  051%=      5-min Rain = 0
KOD1 130205Z 11010KT 03/M06 A3033 RMK A01 T00281063  RH  051%=      5-min Rain = 0
KOD1 130206Z 11010KT 03/M06 A3033 RMK A01 T00281064  RH  051%=      5-min Rain = 0
KOD1 130207Z 11010KT 03/M06 A3033 RMK A01 T00281064  RH  051%=      5-min Rain = 0
KOD1 130208Z 11009KT 03/M06 A3033 RMK A01 T00281064  RH  051%=      5-min Rain = 0
KOD1 130209Z 11009KT 03/M06 A3033 RMK A01 T00281064  RH  051%=      5-min Rain = 0
KOD1 130210Z 11010KT 03/M06 A3033 RMK A01 T00281063  RH  051%=      5-min Rain = 0
KOD1 130211Z 11008KT 03/M06 A3033 RMK A01 T00281064  RH  051%=      5-min Rain = 0
KOD1 130212Z 11009KT 03/M06 A3033 RMK A01 T00271063  RH  051%=      5-min Rain = 0
KOD1 130213Z 11009KT 03/M06 A3033 RMK A01 T00271063  RH  051%=      5-min Rain = 0
KOD1 130214Z 11009KT 03/M06 A3033 RMK A01 T00271063  RH  051%=      5-min Rain = 0
KOD1 130215Z 11009KT 03/M06 A3033 RMK A01 T00271063  RH  051%=      5-min Rain = 0
KOD1 130216Z 11009KT 03/M06 A3033 RMK A01 T00261063  RH  052%=      5-min Rain = 0
KOD1 130217Z 11008KT 03/M06 A3033 RMK A01 T00261063  RH  052%=      5-min Rain = 0
KOD1 130218Z 11008KT 03/M06 A3033 RMK A01 T00261064  RH  052%=      5-min Rain = 0
KOD1 130219Z 11008KT 03/M06 A3033 RMK A01 T00261064  RH  052%=      5-min Rain = 0
KOD1 130220Z 11008KT 03/M06 A3033 RMK A01 T00251064  RH  052%=      5-min Rain = 0
KOD1 130221Z 11008KT 03/M06 A3033 RMK A01 T00251064  RH  052%=      5-min Rain = 0
KOD1 130222Z 11009KT 02/M06 A3033 RMK A01 T00241064  RH  052%=      5-min Rain = 0
KOD1 130223Z 11008KT 02/M06 A3033 RMK A01 T00241064  RH  052%=      5-min Rain = 0
KOD1 130224Z 10007KT 02/M06 A3033 RMK A01 T00231064  RH  052%=      5-min Rain = 0
KOD1 130225Z 11008KT 02/M06 A3033 RMK A01 T00231064  RH  053%=      5-min Rain = 0
KOD1 130226Z 10008KT 02/M06 A3033 RMK A01 T00221064  RH  053%=      5-min Rain = 0
KOD1 130227Z 11008KT 02/M06 A3033 RMK A01 T00221064  RH  053%=      5-min Rain = 0
KOD1 130228Z 10008KT 02/M06 A3033 RMK A01 T00221064  RH  053%=      5-min Rain = 0
KOD1 130229Z 11008KT 02/M06 A3033 RMK A01 T00211064  RH  053%=      5-min Rain = 0
KOD1 130230Z 11008KT 02/M06 A3033 RMK A01 T00211064  RH  053%=      5-min Rain = 0
KOD1 130231Z 11008KT 02/M06 A3033 RMK A01 T00211064  RH  053%=      5-min Rain = 0
KOD1 130232Z 11007KT 02/M07 A3033 RMK A01 T00201065  RH  053%=      5-min Rain = 0
KOD1 130233Z 11007KT 02/M07 A3033 RMK A01 T00201065  RH  054%=      5-min Rain = 0
KOD1 130234Z 11007KT 02/M07 A3033 RMK A01 T00191065  RH  054%=      5-min Rain = 0
KOD1 130235Z 11007KT 02/M07 A3034 RMK A01 T00181065  RH  054%=      5-min Rain = 0
KOD1 130236Z 11006KT 02/M07 A3034 RMK A01 T00181065  RH  054%=      5-min Rain = 0
KOD1 130237Z 11007KT 02/M07 A3034 RMK A01 T00171065  RH  054%=      5-min Rain = 0
KOD1 130238Z 11006KT 02/M07 A3034 RMK A01 T00171065  RH  055%=      5-min Rain = 0
KOD1 130239Z 12007KT 02/M06 A3034 RMK A01 T00171064  RH  055%=      5-min Rain = 0
KOD1 130240Z 11007KT 02/M06 A3034 RMK A01 T00171064  RH  055%=      5-min Rain = 0
KOD1 130241Z 12006KT 02/M06 A3034 RMK A01 T00171064  RH  055%=      5-min Rain = 0
KOD1 130242Z 12007KT 02/M07 A3034 RMK A01 T00161065  RH  055%=      5-min Rain = 0
KOD1 130243Z 12007KT 02/M07 A3034 RMK A01 T00161065  RH  055%=      5-min Rain = 0
KOD1 130244Z 12007KT 02/M06 A3034 RMK A01 T00161063  RH  056%=      5-min Rain = 0
KOD1 130245Z 12007KT 02/M06 A3034 RMK A01 T00161063  RH  056%=      5-min Rain = 0
KOD1 130246Z 12007KT 02/M06 A3034 RMK A01 T00161063  RH  056%=      5-min Rain = 0
KOD1 130247Z 12007KT 02/M06 A3034 RMK A01 T00161063  RH  056%=      5-min Rain = 0
KOD1 130248Z 12007KT 02/M06 A3034 RMK A01 T00161064  RH  056%=      5-min Rain = 0
KOD1 130249Z 12008KT 02/M06 A3034 RMK A01 T00161063  RH  056%=      5-min Rain = 0
KOD1 130250Z 12007KT 02/M06 A3034 RMK A01 T00161063  RH  056%=      5-min Rain = 0
KOD1 130251Z 12007KT 02/M06 A3034 RMK A01 T00161063  RH  056%=      5-min Rain = 0
KOD1 130252Z 12007KT 02/M06 A3034 RMK A01 T00151063  RH  056%=      5-min Rain = 0
KOD1 130253Z 12007KT 02/M06 A3034 RMK A01 T00151063  RH  056%=      5-min Rain = 0
KOD1 130254Z 12007KT 02/M06 A3034 RMK A01 T00151063  RH  056%=      5-min Rain = 0
KOD1 130255Z 12007KT 01/M06 A3034 RMK A01 T00141063  RH  056%=      5-min Rain = 0
KOD1 130256Z 12007KT 01/M06 A3034 RMK A01 T00141063  RH  057%=      5-min Rain = 0
KOD1 130257Z 11007KT 01/M06 A3034 RMK A01 T00141063  RH  057%=      5-min Rain = 0
KOD1 130258Z 11006KT 01/M06 A3034 RMK A01 T00141063  RH  057%=      5-min Rain = 0
KOD1 130259Z 12007KT 01/M06 A3034 RMK A01 T00141063  RH  057%=      5-min Rain = 0
KOD1 130300Z 11007KT 01/M06 A3034 RMK A01 T00131062  RH  057%=      5-min Rain = 0
KOD1 130301Z 11007KT 01/M06 A3034 RMK A01 T00131062  RH  057%=      5-min Rain = 0
KOD1 130302Z 11008KT 01/M06 A3034 RMK A01 T00141061  RH  057%=      5-min Rain = 0
KOD1 130303Z 12008KT 01/M06 A3035 RMK A01 T00141061  RH  057%=      5-min Rain = 0
KOD1 130304Z 12008KT 01/M06 A3035 RMK A01 T00141061  RH  057%=      5-min Rain = 0
KOD1 130305Z 12008KT 02/M06 A3035 RMK A01 T00151061  RH  057%=      5-min Rain = 0
KOD1 130306Z 12008KT 02/M06 A3035 RMK A01 T00151061  RH  057%=      5-min Rain = 0
KOD1 130307Z 12008KT 02/M06 A3035 RMK A01 T00151060  RH  057%=      5-min Rain = 0
KOD1 130308Z 12008KT 02/M06 A3035 RMK A01 T00151060  RH  057%=      5-min Rain = 0
KOD1 130309Z 11008KT 02/M06 A3035 RMK A01 T00151060  RH  057%=      5-min Rain = 0
KOD1 130310Z 12009KT 02/M06 A3035 RMK A01 T00151059  RH  058%=      5-min Rain = 0
KOD1 130311Z 12009KT 02/M06 A3035 RMK A01 T00151059  RH  058%=      5-min Rain = 0
KOD1 130312Z 12008KT 02/M06 A3035 RMK A01 T00151059  RH  058%=      5-min Rain = 0
KOD1 130313Z 12007KT 02/M06 A3035 RMK A01 T00151059  RH  058%=      5-min Rain = 0
KOD1 130314Z 12008KT 02/M06 A3035 RMK A01 T00151059  RH  058%=      5-min Rain = 0
KOD1 130315Z 12007KT 02/M06 A3035 RMK A01 T00151059  RH  058%=      5-min Rain = 0
KOD1 130316Z 12007KT 01/M06 A3035 RMK A01 T00141059  RH  058%=      5-min Rain = 0
KOD1 130317Z 12009KT 02/M06 A3035 RMK A01 T00151058  RH  058%=      5-min Rain = 0
KOD1 130318Z 12008KT 02/M06 A3035 RMK A01 T00151059  RH  058%=      5-min Rain = 0
KOD1 130319Z 12008KT 02/M06 A3035 RMK A01 T00151059  RH  058%=      5-min Rain = 0
KOD1 130320Z 12008KT 01/M06 A3035 RMK A01 T00141059  RH  058%=      5-min Rain = 0
KOD1 130321Z 12008KT 01/M06 A3035 RMK A01 T00141059  RH  058%=      5-min Rain = 0
KOD1 130322Z 12009KT 01/M06 A3035 RMK A01 T00141059  RH  058%=      5-min Rain = 0
KOD1 130323Z 12009KT 01/M06 A3035 RMK A01 T00141059  RH  059%=      5-min Rain = 0
KOD1 130324Z 12008KT 01/M06 A3035 RMK A01 T00141059  RH  059%=      5-min Rain = 0
KOD1 130325Z 12008KT 01/M06 A3035 RMK A01 T00141059  RH  059%=      5-min Rain = 0
KOD1 130326Z 13008KT 01/M06 A3035 RMK A01 T00141058  RH  059%=      5-min Rain = 0
KOD1 130327Z 13007KT 01/M06 A3035 RMK A01 T00141059  RH  059%=      5-min Rain = 0
KOD1 130328Z 13007KT 01/M06 A3035 RMK A01 T00131059  RH  059%=      5-min Rain = 0
KOD1 130329Z 12006KT 01/M06 A3035 RMK A01 T00131059  RH  059%=      5-min Rain = 0
KOD1 130330Z 13007KT 01/M06 A3035 RMK A01 T00121059  RH  059%=      5-min Rain = 0
KOD1 130331Z 13007KT 01/M06 A3035 RMK A01 T00121059  RH  059%=      5-min Rain = 0
KOD1 130332Z 13007KT 01/M06 A3035 RMK A01 T00111059  RH  059%=      5-min Rain = 0
KOD1 130333Z 12007KT 01/M06 A3035 RMK A01 T00111060  RH  059%=      5-min Rain = 0
KOD1 130334Z 12006KT 01/M06 A3035 RMK A01 T00111059  RH  060%=      5-min Rain = 0
KOD1 130335Z 12007KT 01/M06 A3035 RMK A01 T00101059  RH  060%=      5-min Rain = 0
KOD1 130336Z 12006KT 01/M06 A3035 RMK A01 T00101059  RH  060%=      5-min Rain = 0
KOD1 130337Z 12006KT 01/M06 A3035 RMK A01 T00101059  RH  060%=      5-min Rain = 0
KOD1 130338Z 12006KT 01/M06 A3036 RMK A01 T00091060  RH  060%=      5-min Rain = 0
KOD1 130339Z 13006KT 01/M06 A3036 RMK A01 T00091060  RH  060%=      5-min Rain = 0
KOD1 130340Z 12006KT 01/M06 A3036 RMK A01 T00081060  RH  060%=      5-min Rain = 0
KOD1 130341Z 12006KT 01/M06 A3036 RMK A01 T00081060  RH  060%=      5-min Rain = 0
KOD1 130342Z 12006KT 01/M06 A3036 RMK A01 T00081060  RH  061%=      5-min Rain = 0
KOD1 130343Z 12006KT 01/M06 A3035 RMK A01 T00081059  RH  061%=      5-min Rain = 0
KOD1 130344Z 12006KT 01/M06 A3035 RMK A01 T00081059  RH  061%=      5-min Rain = 0
KOD1 130345Z 11006KT 01/M06 A3035 RMK A01 T00081059  RH  061%=      5-min Rain = 0
KOD1 130346Z 11006KT 01/M06 A3035 RMK A01 T00071060  RH  061%=      5-min Rain = 0
KOD1 130347Z 11007KT 01/M06 A3035 RMK A01 T00071060  RH  061%=      5-min Rain = 0
KOD1 130348Z 11007KT 01/M06 A3036 RMK A01 T00061060  RH  061%=      5-min Rain = 0
KOD1 130349Z 11006KT 01/M06 A3036 RMK A01 T00061060  RH  061%=      5-min Rain = 0
KOD1 130350Z 12007KT 01/M06 A3036 RMK A01 T00061059  RH  062%=      5-min Rain = 0
KOD1 130351Z 11007KT 01/M06 A3036 RMK A01 T00061059  RH  062%=      5-min Rain = 0
KOD1 130352Z 11006KT 01/M06 A3036 RMK A01 T00071059  RH  062%=      5-min Rain = 0
KOD1 130353Z 11007KT 01/M06 A3036 RMK A01 T00061059  RH  062%=      5-min Rain = 0
KOD1 130354Z 11007KT 01/M06 A3036 RMK A01 T00061059  RH  062%=      5-min Rain = 0
KOD1 130355Z 11007KT 01/M06 A3036 RMK A01 T00061059  RH  062%=      5-min Rain = 0
KOD1 130356Z 11007KT 01/M06 A3036 RMK A01 T00061059  RH  062%=      5-min Rain = 0
KOD1 130357Z 11007KT 01/M06 A3036 RMK A01 T00061059  RH  062%=      5-min Rain = 0
KOD1 130358Z 11007KT 01/M06 A3036 RMK A01 T00061059  RH  062%=      5-min Rain = 0
KOD1 130359Z 11007KT 01/M06 A3036 RMK A01 T00051059  RH  062%=      5-min Rain = 0
KOD1 130400Z 11007KT 01/M06 A3036 RMK A01 T00051059  RH  062%=      5-min Rain = 0
KOD1 130401Z 12007KT 01/M06 A3036 RMK A01 T00051059  RH  062%=      5-min Rain = 0
KOD1 130402Z 12007KT 01/M06 A3036 RMK A01 T00051059  RH  062%=      5-min Rain = 0
KOD1 130403Z 12007KT 01/M06 A3036 RMK A01 T00051059  RH  062%=      5-min Rain = 0
KOD1 130404Z 12008KT 01/M06 A3036 RMK A01 T00051058  RH  063%=      5-min Rain = 0
KOD1 130405Z 12008KT 01/M06 A3036 RMK A01 T00051058  RH  063%=      5-min Rain = 0
KOD1 130406Z 12007KT 01/M06 A3036 RMK A01 T00051058  RH  063%=      5-min Rain = 0
KOD1 130407Z 12007KT 01/M06 A3036 RMK A01 T00061058  RH  063%=      5-min Rain = 0
KOD1 130408Z 12006KT 01/M06 A3036 RMK A01 T00061058  RH  062%=      5-min Rain = 0
KOD1 130409Z 12007KT 01/M06 A3036 RMK A01 T00061057  RH  063%=      5-min Rain = 0
KOD1 130410Z 12006KT 01/M06 A3036 RMK A01 T00061057  RH  063%=      5-min Rain = 0
KOD1 130411Z 12007KT 01/M06 A3036 RMK A01 T00061057  RH  063%=      5-min Rain = 0
KOD1 130412Z 12006KT 01/M06 A3036 RMK A01 T00061057  RH  063%=      5-min Rain = 0
KOD1 130413Z 12006KT 01/M06 A3036 RMK A01 T00061056  RH  063%=      5-min Rain = 0
KOD1 130414Z 11006KT 01/M06 A3036 RMK A01 T00071056  RH  063%=      5-min Rain = 0
KOD1 130415Z 11006KT 01/M06 A3037 RMK A01 T00081056  RH  063%=      5-min Rain = 0
KOD1 130416Z 11006KT 01/M06 A3037 RMK A01 T00081056  RH  062%=      5-min Rain = 0
KOD1 130417Z 11006KT 01/M06 A3037 RMK A01 T00081056  RH  062%=      5-min Rain = 0
KOD1 130418Z 11005KT 01/M06 A3037 RMK A01 T00081056  RH  062%=      5-min Rain = 0
KOD1 130419Z 11006KT 01/M06 A3037 RMK A01 T00091055  RH  063%=      5-min Rain = 0
KOD1 130420Z 10004KT 01/M06 A3037 RMK A01 T00091055  RH  062%=      5-min Rain = 0
KOD1 130421Z 11005KT 01/M06 A3037 RMK A01 T00091056  RH  062%=      5-min Rain = 0
KOD1 130422Z 10005KT 01/M06 A3037 RMK A01 T00091056  RH  062%=      5-min Rain = 0
KOD1 130423Z 11006KT 01/M06 A3037 RMK A01 T00081056  RH  062%=      5-min Rain = 0
KOD1 130424Z 11005KT 01/M06 A3037 RMK A01 T00091055  RH  062%=      5-min Rain = 0
KOD1 130425Z 11006KT 01/M06 A3037 RMK A01 T00091055  RH  062%=      5-min Rain = 0
KOD1 130426Z 10005KT 01/M06 A3037 RMK A01 T00101055  RH  062%=      5-min Rain = 0
KOD1 130427Z 11005KT 01/M06 A3037 RMK A01 T00101055  RH  062%=      5-min Rain = 0
KOD1 130428Z 11005KT 01/M06 A3037 RMK A01 T00101055  RH  062%=      5-min Rain = 0
KOD1 130429Z 10004KT 01/M06 A3037 RMK A01 T00101055  RH  062%=      5-min Rain = 0
KOD1 130430Z 10004KT 01/M06 A3037 RMK A01 T00101055  RH  062%=      5-min Rain = 0
KOD1 130431Z 10004KT 01/M06 A3037 RMK A01 T00101055  RH  062%=      5-min Rain = 0
KOD1 130432Z 11005KT 01/M06 A3037 RMK A01 T00101055  RH  062%=      5-min Rain = 0
KOD1 130433Z 11005KT 01/M06 A3036 RMK A01 T00101055  RH  062%=      5-min Rain = 0
KOD1 130434Z 11006KT 01/M06 A3036 RMK A01 T00101055  RH  062%=      5-min Rain = 0
KOD1 130435Z 11005KT 01/M06 A3036 RMK A01 T00101055  RH  062%=      5-min Rain = 0
KOD1 130436Z 11005KT 01/M06 A3036 RMK A01 T00101055  RH  062%=      5-min Rain = 0
KOD1 130437Z 11004KT 01/M06 A3036 RMK A01 T00091056  RH  062%=      5-min Rain = 0
KOD1 130438Z 11005KT 01/M06 A3036 RMK A01 T00091056  RH  062%=      5-min Rain = 0
KOD1 130439Z 11006KT 01/M06 A3036 RMK A01 T00091055  RH  062%=      5-min Rain = 0
KOD1 130440Z 11005KT 01/M06 A3036 RMK A01 T00091055  RH  062%=      5-min Rain = 0
KOD1 130441Z 11007KT 01/M05 A3036 RMK A01 T00091054  RH  063%=      5-min Rain = 0
KOD1 130442Z 11007KT 01/M05 A3036 RMK A01 T00101054  RH  063%=      5-min Rain = 0
KOD1 130443Z 12007KT 01/M05 A3036 RMK A01 T00101054  RH  062%=      5-min Rain = 0
KOD1 130444Z 11006KT 01/M05 A3036 RMK A01 T00101054  RH  062%=      5-min Rain = 0
KOD1 130445Z 11006KT 01/M06 A3036 RMK A01 T00091055  RH  062%=      5-min Rain = 0
KOD1 130446Z 12007KT 01/M05 A3036 RMK A01 T00091054  RH  063%=      5-min Rain = 0
KOD1 130447Z 12007KT 01/M05 A3036 RMK A01 T00091054  RH  063%=      5-min Rain = 0
KOD1 130448Z 11006KT 01/M05 A3036 RMK A01 T00091054  RH  063%=      5-min Rain = 0
KOD1 130449Z 11007KT 01/M06 A3036 RMK A01 T00081055  RH  063%=      5-min Rain = 0
KOD1 130450Z 11006KT 01/M05 A3036 RMK A01 T00081054  RH  063%=      5-min Rain = 0
KOD1 130451Z 11006KT 01/M05 A3036 RMK A01 T00081054  RH  063%=      5-min Rain = 0
KOD1 130452Z 11006KT 01/M05 A3036 RMK A01 T00081054  RH  063%=      5-min Rain = 0
KOD1 130453Z 11006KT 01/M05 A3036 RMK A01 T00081054  RH  063%=      5-min Rain = 0
KOD1 130454Z 11007KT 01/M05 A3036 RMK A01 T00081054  RH  064%=      5-min Rain = 0
KOD1 130455Z 11006KT 01/M05 A3036 RMK A01 T00071054  RH  064%=      5-min Rain = 0
KOD1 130456Z 11006KT 01/M06 A3036 RMK A01 T00071055  RH  063%=      5-min Rain = 0
KOD1 130457Z 12006KT 01/M05 A3036 RMK A01 T00061054  RH  064%=      5-min Rain = 0
KOD1 130458Z 11006KT 01/M05 A3036 RMK A01 T00061054  RH  064%=      5-min Rain = 0
KOD1 130459Z 11007KT 01/M05 A3036 RMK A01 T00051054  RH  064%=      5-min Rain = 0
KOD1 130500Z 11007KT 01/M05 A3036 RMK A01 T00061053  RH  065%=      5-min Rain = 0
KOD1 130501Z 12008KT 01/M05 A3036 RMK A01 T00061053  RH  065%=      5-min Rain = 0
KOD1 130502Z 12007KT 01/M05 A3036 RMK A01 T00061054  RH  064%=      5-min Rain = 0
KOD1 130503Z 11008KT 01/M05 A3036 RMK A01 T00051053  RH  065%=      5-min Rain = 0
KOD1 130504Z 12007KT 01/M05 A3036 RMK A01 T00061053  RH  065%=      5-min Rain = 0
KOD1 130505Z 12007KT 01/M05 A3036 RMK A01 T00061053  RH  065%=      5-min Rain = 0
KOD1 130506Z 12008KT 01/M05 A3036 RMK A01 T00061052  RH  065%=      5-min Rain = 0
KOD1 130507Z 12007KT 01/M05 A3036 RMK A01 T00061053  RH  065%=      5-min Rain = 0
KOD1 130508Z 12007KT 01/M05 A3036 RMK A01 T00061052  RH  065%=      5-min Rain = 0
KOD1 130509Z 11007KT 01/M05 A3036 RMK A01 T00061052  RH  065%=      5-min Rain = 0
KOD1 130510Z 12008KT 01/M05 A3036 RMK A01 T00061051  RH  065%=      5-min Rain = 0
KOD1 130511Z 12009KT 01/M05 A3036 RMK A01 T00071051  RH  065%=      5-min Rain = 0
KOD1 130512Z 11008KT 01/M05 A3036 RMK A01 T00071051  RH  065%=      5-min Rain = 0
KOD1 130513Z 12008KT 01/M05 A3036 RMK A01 T00071051  RH  065%=      5-min Rain = 0
KOD1 130514Z 12008KT 01/M05 A3036 RMK A01 T00081050  RH  065%=      5-min Rain = 0
KOD1 130515Z 12010KT 01/M05 A3036 RMK A01 T00081050  RH  065%=      5-min Rain = 0
KOD1 130516Z 12009KT 01/M05 A3036 RMK A01 T00091049  RH  065%=      5-min Rain = 0
KOD1 130517Z 12009KT 01/M05 A3036 RMK A01 T00091050  RH  065%=      5-min Rain = 0
KOD1 130518Z 12009KT 01/M05 A3036 RMK A01 T00091049  RH  065%=      5-min Rain = 0
KOD1 130519Z 12009KT 01/M05 A3036 RMK A01 T00091049  RH  065%=      5-min Rain = 0
KOD1 130520Z 12008KT 01/M05 A3036 RMK A01 T00091049  RH  065%=      5-min Rain = 0
KOD1 130521Z 12009KT 01/M05 A3036 RMK A01 T00091049  RH  065%=      5-min Rain = 0
KOD1 130522Z 12008KT 01/M05 A3036 RMK A01 T00091049  RH  065%=      5-min Rain = 0
KOD1 130523Z 12010KT 01/M05 A3036 RMK A01 T00091049  RH  065%=      5-min Rain = 0
KOD1 130524Z 12009KT 01/M05 A3036 RMK A01 T00091049  RH  065%=      5-min Rain = 0
KOD1 130525Z 12008KT 01/M05 A3036 RMK A01 T00091049  RH  065%=      5-min Rain = 0
KOD1 130526Z 13010KT 01/M05 A3036 RMK A01 T00091049  RH  065%=      5-min Rain = 0
KOD1 130527Z 12009KT 01/M05 A3036 RMK A01 T00101048  RH  065%=      5-min Rain = 0
KOD1 130528Z 13008KT 01/M05 A3036 RMK A01 T00091049  RH  065%=      5-min Rain = 0
KOD1 130529Z 12008KT 01/M05 A3036 RMK A01 T00091049  RH  065%=      5-min Rain = 0
KOD1 130530Z 12009KT 01/M05 A3036 RMK A01 T00091049  RH  066%=      5-min Rain = 0
KOD1 130531Z 12009KT 01/M05 A3036 RMK A01 T00091048  RH  066%=      5-min Rain = 0
KOD1 130532Z 13008KT 01/M05 A3037 RMK A01 T00091048  RH  066%=      5-min Rain = 0
KOD1 130533Z 13008KT 01/M05 A3037 RMK A01 T00091049  RH  066%=      5-min Rain = 0
KOD1 130534Z 13008KT 01/M05 A3037 RMK A01 T00081049  RH  066%=      5-min Rain = 0
KOD1 130535Z 12008KT 01/M05 A3037 RMK A01 T00081049  RH  066%=      5-min Rain = 0
KOD1 130536Z 12008KT 01/M05 A3037 RMK A01 T00081048  RH  066%=      5-min Rain = 0
KOD1 130537Z 12007KT 01/M05 A3037 RMK A01 T00081048  RH  066%=      5-min Rain = 0
KOD1 130538Z 12008KT 01/M05 A3037 RMK A01 T00081048  RH  066%=      5-min Rain = 0
KOD1 130539Z 12008KT 01/M05 A3037 RMK A01 T00081048  RH  066%=      5-min Rain = 0
KOD1 130540Z 13009KT 01/M05 A3037 RMK A01 T00081047  RH  066%=      5-min Rain = 0
KOD1 130541Z 13007KT 01/M05 A3037 RMK A01 T00091048  RH  066%=      5-min Rain = 0
KOD1 130542Z 12008KT 01/M05 A3037 RMK A01 T00081048  RH  066%=      5-min Rain = 0
KOD1 130543Z 12009KT 01/M05 A3037 RMK A01 T00081048  RH  066%=      5-min Rain = 0
KOD1 130544Z 12008KT 01/M05 A3037 RMK A01 T00081048  RH  066%=      5-min Rain = 0
KOD1 130545Z 13008KT 01/M05 A3037 RMK A01 T00081048  RH  066%=      5-min Rain = 0
KOD1 130546Z 12007KT 01/M05 A3037 RMK A01 T00071048  RH  066%=      5-min Rain = 0
KOD1 130547Z 12008KT 01/M05 A3037 RMK A01 T00071048  RH  067%=      5-min Rain = 0
KOD1 130548Z 12008KT 01/M05 A3037 RMK A01 T00071048  RH  067%=      5-min Rain = 0
KOD1 130549Z 12009KT 01/M05 A3037 RMK A01 T00071047  RH  067%=      5-min Rain = 0
KOD1 130550Z 12008KT 01/M05 A3037 RMK A01 T00071048  RH  067%=      5-min Rain = 0
KOD1 130551Z 12007KT 01/M05 A3037 RMK A01 T00071048  RH  067%=      5-min Rain = 0
KOD1 130552Z 12007KT 01/M05 A3037 RMK A01 T00071048  RH  067%=      5-min Rain = 0
KOD1 130553Z 12008KT 01/M05 A3037 RMK A01 T00071048  RH  067%=      5-min Rain = 0
KOD1 130554Z 12008KT 01/M05 A3037 RMK A01 T00071048  RH  067%=      5-min Rain = 0
KOD1 130555Z 12008KT 01/M05 A3037 RMK A01 T00071048  RH  067%=      5-min Rain = 0
KOD1 130556Z 12007KT 01/M05 A3037 RMK A01 T00071047  RH  067%=      5-min Rain = 0
KOD1 130557Z 12007KT 01/M05 A3037 RMK A01 T00061048  RH  067%=      5-min Rain = 0
KOD1 130558Z 11007KT 01/M05 A3037 RMK A01 T00061048  RH  067%=      5-min Rain = 0
KOD1 130559Z 12007KT 01/M05 A3037 RMK A01 T00061048  RH  067%=      5-min Rain = 0

Page generated in 0.0355 seconds.